
<gpx xmlns="http://www.topografix.com/GPX/1/1" xmlns:gpxx="http://www.garmin.com/xmlschemas/GpxExtensions/v3" xmlns:xsi="http://www.w3.org/2001/XMLSchema-instance" version="1.1" creator="Adze - https://getadze.com/" xsi:schemaLocation="http://www.topografix.com/GPX/1/1 http://www.topografix.com/GPX/1/1/gpx.xsd http://www.garmin.com/xmlschemas/GpxExtensions/v3 http://www.garmin.com/xmlschemas/GpxExtensionsv3.xsd">
    <metadata>
        <name>Untitled Document</name>
        <link href="http://www.garmin.com"></link>
        <time>2018-03-08T04:05:10.476Z</time>
    </metadata>
    <wpt lon="101.054750" lat="14.446011">
        <ele>55.000000</ele>
        <name>Rai Wansnit Resort</name>
        <cmt>21-FEB-09 10:08:13</cmt>
        <desc>21-FEB-09 10:08:13</desc>
        <sym>Residence</sym>
        <extensions>
            <gpxx:WaypointExtension xmlns:gpxx="http://www.garmin.com/xmlschemas/GpxExtensions/v3">
                <gpxx:DisplayMode>SymbolOnly</gpxx:DisplayMode>
            </gpxx:WaypointExtension>
        </extensions>
    </wpt>
    <trk>
        <name>May 2009 - Sunday</name>
        <extensions>
            <gpxx:TrackExtension xmlns:gpxx="http://www.garmin.com/xmlschemas/GpxExtensions/v3">
                <gpxx:DisplayColor>Green</gpxx:DisplayColor>
            </gpxx:TrackExtension>
        </extensions>
        <trkseg>
            <trkpt lon="101.054724" lat="14.445980">
                <ele>65.026367</ele>
                <time>2009-05-31T02:59:38Z</time>
            </trkpt>
            <trkpt lon="101.054693" lat="14.445917">
                <ele>62.142334</ele>
                <time>2009-05-31T02:59:49Z</time>
            </trkpt>
            <trkpt lon="101.054688" lat="14.445836">
                <ele>59.739136</ele>
                <time>2009-05-31T02:59:58Z</time>
            </trkpt>
            <trkpt lon="101.054923" lat="14.445940">
                <ele>57.335815</ele>
                <time>2009-05-31T03:00:16Z</time>
            </trkpt>
            <trkpt lon="101.055293" lat="14.446200">
                <ele>53.490479</ele>
                <time>2009-05-31T03:00:31Z</time>
            </trkpt>
            <trkpt lon="101.055512" lat="14.446574">
                <ele>50.606567</ele>
                <time>2009-05-31T03:00:44Z</time>
            </trkpt>
            <trkpt lon="101.055829" lat="14.446532">
                <ele>52.048584</ele>
                <time>2009-05-31T03:00:54Z</time>
            </trkpt>
            <trkpt lon="101.056297" lat="14.446510">
                <ele>55.413086</ele>
                <time>2009-05-31T03:01:08Z</time>
            </trkpt>
            <trkpt lon="101.056755" lat="14.446671">
                <ele>53.971191</ele>
                <time>2009-05-31T03:01:23Z</time>
            </trkpt>
            <trkpt lon="101.057055" lat="14.447145">
                <ele>52.048584</ele>
                <time>2009-05-31T03:01:39Z</time>
            </trkpt>
            <trkpt lon="101.057298" lat="14.447671">
                <ele>52.529175</ele>
                <time>2009-05-31T03:01:51Z</time>
            </trkpt>
            <trkpt lon="101.057544" lat="14.447964">
                <ele>51.087158</ele>
                <time>2009-05-31T03:02:01Z</time>
            </trkpt>
            <trkpt lon="101.058501" lat="14.447772">
                <ele>55.893799</ele>
                <time>2009-05-31T03:02:20Z</time>
            </trkpt>
            <trkpt lon="101.059505" lat="14.447549">
                <ele>57.335815</ele>
                <time>2009-05-31T03:02:39Z</time>
            </trkpt>
            <trkpt lon="101.059781" lat="14.447566">
                <ele>57.335815</ele>
                <time>2009-05-31T03:02:45Z</time>
            </trkpt>
            <trkpt lon="101.060025" lat="14.448265">
                <ele>56.374512</ele>
                <time>2009-05-31T03:02:59Z</time>
            </trkpt>
            <trkpt lon="101.060559" lat="14.449426">
                <ele>53.490479</ele>
                <time>2009-05-31T03:03:18Z</time>
            </trkpt>
            <trkpt lon="101.061065" lat="14.450569">
                <ele>53.009766</ele>
                <time>2009-05-31T03:03:36Z</time>
            </trkpt>
            <trkpt lon="101.061550" lat="14.451695">
                <ele>51.567871</ele>
                <time>2009-05-31T03:03:52Z</time>
            </trkpt>
            <trkpt lon="101.062111" lat="14.452846">
                <ele>50.606567</ele>
                <time>2009-05-31T03:04:10Z</time>
            </trkpt>
            <trkpt lon="101.062136" lat="14.452907">
                <ele>50.606567</ele>
                <time>2009-05-31T03:04:13Z</time>
            </trkpt>
            <trkpt lon="101.062141" lat="14.452921">
                <ele>50.125977</ele>
                <time>2009-05-31T03:04:18Z</time>
            </trkpt>
            <trkpt lon="101.062030" lat="14.452967">
                <ele>50.125977</ele>
                <time>2009-05-31T03:04:21Z</time>
            </trkpt>
            <trkpt lon="101.061929" lat="14.453017">
                <ele>49.645264</ele>
                <time>2009-05-31T03:04:26Z</time>
            </trkpt>
            <trkpt lon="101.061704" lat="14.453244">
                <ele>48.683960</ele>
                <time>2009-05-31T03:04:37Z</time>
            </trkpt>
            <trkpt lon="101.061679" lat="14.453281">
                <ele>48.683960</ele>
                <time>2009-05-31T03:04:39Z</time>
            </trkpt>
            <trkpt lon="101.061515" lat="14.453353">
                <ele>46.280640</ele>
                <time>2009-05-31T03:04:45Z</time>
            </trkpt>
            <trkpt lon="101.061157" lat="14.453508">
                <ele>47.241821</ele>
                <time>2009-05-31T03:04:57Z</time>
            </trkpt>
            <trkpt lon="101.061049" lat="14.453543">
                <ele>47.722534</ele>
                <time>2009-05-31T03:05:01Z</time>
            </trkpt>
            <trkpt lon="101.060880" lat="14.453638">
                <ele>49.164551</ele>
                <time>2009-05-31T03:05:15Z</time>
            </trkpt>
            <trkpt lon="101.060524" lat="14.453715">
                <ele>48.683960</ele>
                <time>2009-05-31T03:05:28Z</time>
            </trkpt>
            <trkpt lon="101.060141" lat="14.453716">
                <ele>48.683960</ele>
                <time>2009-05-31T03:05:40Z</time>
            </trkpt>
            <trkpt lon="101.060044" lat="14.453710">
                <ele>48.683960</ele>
                <time>2009-05-31T03:05:44Z</time>
            </trkpt>
            <trkpt lon="101.059667" lat="14.453802">
                <ele>47.722534</ele>
                <time>2009-05-31T03:05:58Z</time>
            </trkpt>
            <trkpt lon="101.059330" lat="14.453842">
                <ele>47.722534</ele>
                <time>2009-05-31T03:06:12Z</time>
            </trkpt>
            <trkpt lon="101.059160" lat="14.454010">
                <ele>48.683960</ele>
                <time>2009-05-31T03:06:22Z</time>
            </trkpt>
            <trkpt lon="101.058999" lat="14.454255">
                <ele>49.164551</ele>
                <time>2009-05-31T03:06:34Z</time>
            </trkpt>
            <trkpt lon="101.058790" lat="14.454589">
                <ele>50.606567</ele>
                <time>2009-05-31T03:06:51Z</time>
            </trkpt>
            <trkpt lon="101.058762" lat="14.454808">
                <ele>50.606567</ele>
                <time>2009-05-31T03:07:06Z</time>
            </trkpt>
            <trkpt lon="101.058734" lat="14.455179">
                <ele>49.645264</ele>
                <time>2009-05-31T03:07:19Z</time>
            </trkpt>
            <trkpt lon="101.058684" lat="14.455722">
                <ele>47.722534</ele>
                <time>2009-05-31T03:07:37Z</time>
            </trkpt>
            <trkpt lon="101.058639" lat="14.455960">
                <ele>47.722534</ele>
                <time>2009-05-31T03:07:48Z</time>
            </trkpt>
            <trkpt lon="101.058517" lat="14.455938">
                <ele>48.203369</ele>
                <time>2009-05-31T03:07:54Z</time>
            </trkpt>
            <trkpt lon="101.058125" lat="14.455709">
                <ele>51.567871</ele>
                <time>2009-05-31T03:08:12Z</time>
            </trkpt>
            <trkpt lon="101.057828" lat="14.455532">
                <ele>53.490479</ele>
                <time>2009-05-31T03:08:27Z</time>
            </trkpt>
            <trkpt lon="101.057586" lat="14.455383">
                <ele>54.451782</ele>
                <time>2009-05-31T03:08:44Z</time>
            </trkpt>
            <trkpt lon="101.057529" lat="14.455349">
                <ele>53.971191</ele>
                <time>2009-05-31T03:08:48Z</time>
            </trkpt>
            <trkpt lon="101.057411" lat="14.455437">
                <ele>53.009766</ele>
                <time>2009-05-31T03:08:56Z</time>
            </trkpt>
            <trkpt lon="101.057127" lat="14.455769">
                <ele>50.606567</ele>
                <time>2009-05-31T03:09:12Z</time>
            </trkpt>
            <trkpt lon="101.057147" lat="14.456200">
                <ele>51.087158</ele>
                <time>2009-05-31T03:09:23Z</time>
            </trkpt>
            <trkpt lon="101.056989" lat="14.456491">
                <ele>51.567871</ele>
                <time>2009-05-31T03:09:35Z</time>
            </trkpt>
            <trkpt lon="101.057012" lat="14.456578">
                <ele>51.567871</ele>
                <time>2009-05-31T03:09:40Z</time>
            </trkpt>
            <trkpt lon="101.057535" lat="14.457006">
                <ele>49.164551</ele>
                <time>2009-05-31T03:09:55Z</time>
            </trkpt>
            <trkpt lon="101.057931" lat="14.457299">
                <ele>47.722534</ele>
                <time>2009-05-31T03:10:07Z</time>
            </trkpt>
            <trkpt lon="101.057965" lat="14.457429">
                <ele>45.799927</ele>
                <time>2009-05-31T03:10:12Z</time>
            </trkpt>
            <trkpt lon="101.057959" lat="14.457836">
                <ele>43.877319</ele>
                <time>2009-05-31T03:10:24Z</time>
            </trkpt>
            <trkpt lon="101.058009" lat="14.458552">
                <ele>44.838623</ele>
                <time>2009-05-31T03:10:40Z</time>
            </trkpt>
            <trkpt lon="101.058061" lat="14.459239">
                <ele>44.838623</ele>
                <time>2009-05-31T03:10:58Z</time>
            </trkpt>
            <trkpt lon="101.058117" lat="14.459514">
                <ele>44.838623</ele>
                <time>2009-05-31T03:11:08Z</time>
            </trkpt>
            <trkpt lon="101.058231" lat="14.459850">
                <ele>45.799927</ele>
                <time>2009-05-31T03:11:22Z</time>
            </trkpt>
            <trkpt lon="101.058492" lat="14.460477">
                <ele>45.799927</ele>
                <time>2009-05-31T03:11:38Z</time>
            </trkpt>
            <trkpt lon="101.058548" lat="14.460609">
                <ele>45.799927</ele>
                <time>2009-05-31T03:11:41Z</time>
            </trkpt>
            <trkpt lon="101.058677" lat="14.460986">
                <ele>45.799927</ele>
                <time>2009-05-31T03:11:49Z</time>
            </trkpt>
            <trkpt lon="101.058846" lat="14.461327">
                <ele>45.319214</ele>
                <time>2009-05-31T03:12:01Z</time>
            </trkpt>
            <trkpt lon="101.058859" lat="14.461352">
                <ele>45.319214</ele>
                <time>2009-05-31T03:12:03Z</time>
            </trkpt>
            <trkpt lon="101.058821" lat="14.461465">
                <ele>44.838623</ele>
                <time>2009-05-31T03:12:10Z</time>
            </trkpt>
            <trkpt lon="101.058802" lat="14.461575">
                <ele>44.838623</ele>
                <time>2009-05-31T03:12:25Z</time>
            </trkpt>
            <trkpt lon="101.058800" lat="14.461578">
                <ele>44.358032</ele>
                <time>2009-05-31T03:12:39Z</time>
            </trkpt>
            <trkpt lon="101.058811" lat="14.461511">
                <ele>45.799927</ele>
                <time>2009-05-31T03:12:55Z</time>
            </trkpt>
            <trkpt lon="101.058807" lat="14.461478">
                <ele>46.280640</ele>
                <time>2009-05-31T03:13:12Z</time>
            </trkpt>
            <trkpt lon="101.058808" lat="14.461477">
                <ele>46.761231</ele>
                <time>2009-05-31T03:13:50Z</time>
            </trkpt>
            <trkpt lon="101.058811" lat="14.461471">
                <ele>48.683960</ele>
                <time>2009-05-31T03:16:08Z</time>
            </trkpt>
            <trkpt lon="101.058806" lat="14.461465">
                <ele>49.645264</ele>
                <time>2009-05-31T03:16:46Z</time>
            </trkpt>
            <trkpt lon="101.058806" lat="14.461463">
                <ele>51.087158</ele>
                <time>2009-05-31T03:17:47Z</time>
            </trkpt>
            <trkpt lon="101.058810" lat="14.461468">
                <ele>51.567871</ele>
                <time>2009-05-31T03:18:18Z</time>
            </trkpt>
            <trkpt lon="101.058814" lat="14.461445">
                <ele>52.048584</ele>
                <time>2009-05-31T03:19:00Z</time>
            </trkpt>
            <trkpt lon="101.058817" lat="14.461462">
                <ele>51.087158</ele>
                <time>2009-05-31T03:19:24Z</time>
            </trkpt>
            <trkpt lon="101.058817" lat="14.461471">
                <ele>49.645264</ele>
                <time>2009-05-31T03:19:56Z</time>
            </trkpt>
            <trkpt lon="101.058820" lat="14.461470">
                <ele>48.683960</ele>
                <time>2009-05-31T03:20:26Z</time>
            </trkpt>
            <trkpt lon="101.058832" lat="14.461368">
                <ele>48.683960</ele>
                <time>2009-05-31T03:20:36Z</time>
            </trkpt>
            <trkpt lon="101.058882" lat="14.461345">
                <ele>48.683960</ele>
                <time>2009-05-31T03:20:40Z</time>
            </trkpt>
            <trkpt lon="101.059146" lat="14.461342">
                <ele>48.683960</ele>
                <time>2009-05-31T03:20:56Z</time>
            </trkpt>
            <trkpt lon="101.059175" lat="14.461334">
                <ele>48.203369</ele>
                <time>2009-05-31T03:21:11Z</time>
            </trkpt>
            <trkpt lon="101.059181" lat="14.461352">
                <ele>48.203369</ele>
                <time>2009-05-31T03:21:17Z</time>
            </trkpt>
            <trkpt lon="101.059276" lat="14.461610">
                <ele>47.241821</ele>
                <time>2009-05-31T03:21:32Z</time>
            </trkpt>
            <trkpt lon="101.059309" lat="14.461818">
                <ele>46.761231</ele>
                <time>2009-05-31T03:21:47Z</time>
            </trkpt>
            <trkpt lon="101.059318" lat="14.461820">
                <ele>46.761231</ele>
                <time>2009-05-31T03:22:04Z</time>
            </trkpt>
            <trkpt lon="101.059466" lat="14.461853">
                <ele>46.280640</ele>
                <time>2009-05-31T03:22:13Z</time>
            </trkpt>
            <trkpt lon="101.059643" lat="14.461913">
                <ele>46.280640</ele>
                <time>2009-05-31T03:22:26Z</time>
            </trkpt>
            <trkpt lon="101.059903" lat="14.461910">
                <ele>46.280640</ele>
                <time>2009-05-31T03:22:39Z</time>
            </trkpt>
            <trkpt lon="101.060004" lat="14.461841">
                <ele>46.761231</ele>
                <time>2009-05-31T03:22:45Z</time>
            </trkpt>
            <trkpt lon="101.060056" lat="14.461775">
                <ele>47.241821</ele>
                <time>2009-05-31T03:22:52Z</time>
            </trkpt>
            <trkpt lon="101.060064" lat="14.461727">
                <ele>46.280640</ele>
                <time>2009-05-31T03:22:56Z</time>
            </trkpt>
            <trkpt lon="101.060073" lat="14.461638">
                <ele>45.799927</ele>
                <time>2009-05-31T03:23:10Z</time>
            </trkpt>
            <trkpt lon="101.060087" lat="14.461602">
                <ele>46.761231</ele>
                <time>2009-05-31T03:23:32Z</time>
            </trkpt>
            <trkpt lon="101.060098" lat="14.461553">
                <ele>47.722534</ele>
                <time>2009-05-31T03:23:49Z</time>
            </trkpt>
            <trkpt lon="101.060124" lat="14.461482">
                <ele>48.203369</ele>
                <time>2009-05-31T03:24:01Z</time>
            </trkpt>
            <trkpt lon="101.060126" lat="14.461478">
                <ele>48.203369</ele>
                <time>2009-05-31T03:24:03Z</time>
            </trkpt>
            <trkpt lon="101.060137" lat="14.461444">
                <ele>47.722534</ele>
                <time>2009-05-31T03:24:11Z</time>
            </trkpt>
            <trkpt lon="101.060180" lat="14.461347">
                <ele>47.722534</ele>
                <time>2009-05-31T03:24:16Z</time>
            </trkpt>
            <trkpt lon="101.060320" lat="14.461102">
                <ele>48.203369</ele>
                <time>2009-05-31T03:24:29Z</time>
            </trkpt>
            <trkpt lon="101.060364" lat="14.461020">
                <ele>48.683960</ele>
                <time>2009-05-31T03:24:45Z</time>
            </trkpt>
            <trkpt lon="101.060375" lat="14.461007">
                <ele>48.683960</ele>
                <time>2009-05-31T03:24:47Z</time>
            </trkpt>
            <trkpt lon="101.060411" lat="14.461040">
                <ele>48.683960</ele>
                <time>2009-05-31T03:24:58Z</time>
            </trkpt>
            <trkpt lon="101.060410" lat="14.461059">
                <ele>48.203369</ele>
                <time>2009-05-31T03:25:01Z</time>
            </trkpt>
            <trkpt lon="101.060435" lat="14.461132">
                <ele>46.280640</ele>
                <time>2009-05-31T03:25:06Z</time>
            </trkpt>
            <trkpt lon="101.060545" lat="14.461533">
                <ele>40.032105</ele>
                <time>2009-05-31T03:25:25Z</time>
            </trkpt>
            <trkpt lon="101.060650" lat="14.461940">
                <ele>40.032105</ele>
                <time>2009-05-31T03:25:42Z</time>
            </trkpt>
            <trkpt lon="101.060758" lat="14.462389">
                <ele>41.473999</ele>
                <time>2009-05-31T03:25:58Z</time>
            </trkpt>
            <trkpt lon="101.060895" lat="14.462909">
                <ele>41.473999</ele>
                <time>2009-05-31T03:26:13Z</time>
            </trkpt>
            <trkpt lon="101.061152" lat="14.462897">
                <ele>40.993408</ele>
                <time>2009-05-31T03:26:23Z</time>
            </trkpt>
            <trkpt lon="101.061452" lat="14.462879">
                <ele>41.473999</ele>
                <time>2009-05-31T03:26:34Z</time>
            </trkpt>
            <trkpt lon="101.061636" lat="14.462889">
                <ele>42.916016</ele>
                <time>2009-05-31T03:26:42Z</time>
            </trkpt>
            <trkpt lon="101.061980" lat="14.462875">
                <ele>45.319214</ele>
                <time>2009-05-31T03:26:57Z</time>
            </trkpt>
            <trkpt lon="101.062375" lat="14.462852">
                <ele>47.722534</ele>
                <time>2009-05-31T03:27:14Z</time>
            </trkpt>
            <trkpt lon="101.062622" lat="14.462944">
                <ele>49.645264</ele>
                <time>2009-05-31T03:27:26Z</time>
            </trkpt>
            <trkpt lon="101.062732" lat="14.463155">
                <ele>50.125977</ele>
                <time>2009-05-31T03:27:37Z</time>
            </trkpt>
            <trkpt lon="101.062784" lat="14.463148">
                <ele>52.048584</ele>
                <time>2009-05-31T03:27:49Z</time>
            </trkpt>
            <trkpt lon="101.062810" lat="14.463123">
                <ele>52.529175</ele>
                <time>2009-05-31T03:27:56Z</time>
            </trkpt>
            <trkpt lon="101.062959" lat="14.462832">
                <ele>54.932373</ele>
                <time>2009-05-31T03:28:14Z</time>
            </trkpt>
            <trkpt lon="101.062982" lat="14.462509">
                <ele>55.413086</ele>
                <time>2009-05-31T03:28:25Z</time>
            </trkpt>
            <trkpt lon="101.062957" lat="14.462319">
                <ele>54.451782</ele>
                <time>2009-05-31T03:28:29Z</time>
            </trkpt>
            <trkpt lon="101.062991" lat="14.462071">
                <ele>54.451782</ele>
                <time>2009-05-31T03:28:33Z</time>
            </trkpt>
            <trkpt lon="101.063296" lat="14.461579">
                <ele>53.971191</ele>
                <time>2009-05-31T03:28:46Z</time>
            </trkpt>
            <trkpt lon="101.063640" lat="14.461382">
                <ele>52.529175</ele>
                <time>2009-05-31T03:28:58Z</time>
            </trkpt>
            <trkpt lon="101.064176" lat="14.461149">
                <ele>52.529175</ele>
                <time>2009-05-31T03:29:15Z</time>
            </trkpt>
            <trkpt lon="101.064362" lat="14.461095">
                <ele>52.048584</ele>
                <time>2009-05-31T03:29:19Z</time>
            </trkpt>
            <trkpt lon="101.064763" lat="14.461073">
                <ele>53.971191</ele>
                <time>2009-05-31T03:29:31Z</time>
            </trkpt>
            <trkpt lon="101.064966" lat="14.461395">
                <ele>57.335815</ele>
                <time>2009-05-31T03:29:45Z</time>
            </trkpt>
            <trkpt lon="101.065047" lat="14.461621">
                <ele>58.777710</ele>
                <time>2009-05-31T03:29:56Z</time>
            </trkpt>
            <trkpt lon="101.065259" lat="14.461624">
                <ele>59.258423</ele>
                <time>2009-05-31T03:30:05Z</time>
            </trkpt>
            <trkpt lon="101.065572" lat="14.461580">
                <ele>58.297119</ele>
                <time>2009-05-31T03:30:15Z</time>
            </trkpt>
            <trkpt lon="101.065812" lat="14.461525">
                <ele>56.855103</ele>
                <time>2009-05-31T03:30:19Z</time>
            </trkpt>
            <trkpt lon="101.066004" lat="14.461493">
                <ele>55.893799</ele>
                <time>2009-05-31T03:30:22Z</time>
            </trkpt>
            <trkpt lon="101.066199" lat="14.461386">
                <ele>55.893799</ele>
                <time>2009-05-31T03:30:26Z</time>
            </trkpt>
            <trkpt lon="101.066406" lat="14.461127">
                <ele>56.374512</ele>
                <time>2009-05-31T03:30:33Z</time>
            </trkpt>
            <trkpt lon="101.066643" lat="14.460758">
                <ele>59.258423</ele>
                <time>2009-05-31T03:30:47Z</time>
            </trkpt>
            <trkpt lon="101.066732" lat="14.460406">
                <ele>59.739136</ele>
                <time>2009-05-31T03:31:00Z</time>
            </trkpt>
            <trkpt lon="101.066737" lat="14.460324">
                <ele>59.739136</ele>
                <time>2009-05-31T03:31:02Z</time>
            </trkpt>
            <trkpt lon="101.066817" lat="14.460117">
                <ele>59.258423</ele>
                <time>2009-05-31T03:31:07Z</time>
            </trkpt>
            <trkpt lon="101.066940" lat="14.459870">
                <ele>59.739136</ele>
                <time>2009-05-31T03:31:14Z</time>
            </trkpt>
            <trkpt lon="101.067008" lat="14.459677">
                <ele>58.297119</ele>
                <time>2009-05-31T03:31:19Z</time>
            </trkpt>
            <trkpt lon="101.067057" lat="14.459541">
                <ele>56.855103</ele>
                <time>2009-05-31T03:31:22Z</time>
            </trkpt>
            <trkpt lon="101.067039" lat="14.459326">
                <ele>55.413086</ele>
                <time>2009-05-31T03:31:26Z</time>
            </trkpt>
            <trkpt lon="101.067212" lat="14.459047">
                <ele>54.451782</ele>
                <time>2009-05-31T03:31:35Z</time>
            </trkpt>
            <trkpt lon="101.067255" lat="14.459022">
                <ele>54.451782</ele>
                <time>2009-05-31T03:31:36Z</time>
            </trkpt>
            <trkpt lon="101.067813" lat="14.458649">
                <ele>52.529175</ele>
                <time>2009-05-31T03:31:51Z</time>
            </trkpt>
            <trkpt lon="101.068129" lat="14.458468">
                <ele>53.009766</ele>
                <time>2009-05-31T03:32:01Z</time>
            </trkpt>
            <trkpt lon="101.068440" lat="14.458309">
                <ele>53.009766</ele>
                <time>2009-05-31T03:32:12Z</time>
            </trkpt>
            <trkpt lon="101.068764" lat="14.457993">
                <ele>52.529175</ele>
                <time>2009-05-31T03:32:24Z</time>
            </trkpt>
            <trkpt lon="101.068929" lat="14.457712">
                <ele>52.048584</ele>
                <time>2009-05-31T03:32:34Z</time>
            </trkpt>
            <trkpt lon="101.068721" lat="14.457386">
                <ele>50.606567</ele>
                <time>2009-05-31T03:32:42Z</time>
            </trkpt>
            <trkpt lon="101.068794" lat="14.457184">
                <ele>51.087158</ele>
                <time>2009-05-31T03:32:48Z</time>
            </trkpt>
            <trkpt lon="101.069461" lat="14.456745">
                <ele>51.087158</ele>
                <time>2009-05-31T03:33:05Z</time>
            </trkpt>
            <trkpt lon="101.069590" lat="14.456648">
                <ele>51.087158</ele>
                <time>2009-05-31T03:33:08Z</time>
            </trkpt>
            <trkpt lon="101.070185" lat="14.456169">
                <ele>50.125977</ele>
                <time>2009-05-31T03:33:23Z</time>
            </trkpt>
            <trkpt lon="101.070245" lat="14.456118">
                <ele>50.125977</ele>
                <time>2009-05-31T03:33:25Z</time>
            </trkpt>
            <trkpt lon="101.070901" lat="14.455635">
                <ele>50.125977</ele>
                <time>2009-05-31T03:33:41Z</time>
            </trkpt>
            <trkpt lon="101.071624" lat="14.455012">
                <ele>51.087158</ele>
                <time>2009-05-31T03:33:59Z</time>
            </trkpt>
            <trkpt lon="101.071958" lat="14.454695">
                <ele>51.567871</ele>
                <time>2009-05-31T03:34:08Z</time>
            </trkpt>
            <trkpt lon="101.072170" lat="14.454295">
                <ele>52.529175</ele>
                <time>2009-05-31T03:34:17Z</time>
            </trkpt>
            <trkpt lon="101.072594" lat="14.453409">
                <ele>53.971191</ele>
                <time>2009-05-31T03:34:37Z</time>
            </trkpt>
            <trkpt lon="101.073043" lat="14.452804">
                <ele>54.451782</ele>
                <time>2009-05-31T03:34:53Z</time>
            </trkpt>
            <trkpt lon="101.073589" lat="14.452287">
                <ele>55.413086</ele>
                <time>2009-05-31T03:35:13Z</time>
            </trkpt>
            <trkpt lon="101.073973" lat="14.451939">
                <ele>55.413086</ele>
                <time>2009-05-31T03:35:32Z</time>
            </trkpt>
            <trkpt lon="101.074110" lat="14.451830">
                <ele>54.932373</ele>
                <time>2009-05-31T03:35:54Z</time>
            </trkpt>
            <trkpt lon="101.074174" lat="14.451789">
                <ele>54.932373</ele>
                <time>2009-05-31T03:36:00Z</time>
            </trkpt>
            <trkpt lon="101.074212" lat="14.451765">
                <ele>54.932373</ele>
                <time>2009-05-31T03:36:12Z</time>
            </trkpt>
            <trkpt lon="101.074212" lat="14.451765">
                <ele>55.893799</ele>
                <time>2009-05-31T03:36:30Z</time>
            </trkpt>
            <trkpt lon="101.074212" lat="14.451765">
                <ele>55.893799</ele>
                <time>2009-05-31T03:36:41Z</time>
            </trkpt>
            <trkpt lon="101.074212" lat="14.451765">
                <ele>56.374512</ele>
                <time>2009-05-31T03:36:45Z</time>
            </trkpt>
            <trkpt lon="101.073989" lat="14.451924">
                <ele>55.413086</ele>
                <time>2009-05-31T03:36:58Z</time>
            </trkpt>
            <trkpt lon="101.073694" lat="14.452192">
                <ele>54.932373</ele>
                <time>2009-05-31T03:37:09Z</time>
            </trkpt>
            <trkpt lon="101.073184" lat="14.452655">
                <ele>54.451782</ele>
                <time>2009-05-31T03:37:25Z</time>
            </trkpt>
            <trkpt lon="101.073329" lat="14.453064">
                <ele>53.490479</ele>
                <time>2009-05-31T03:37:38Z</time>
            </trkpt>
            <trkpt lon="101.073434" lat="14.453361">
                <ele>51.567871</ele>
                <time>2009-05-31T03:37:52Z</time>
            </trkpt>
            <trkpt lon="101.073554" lat="14.453666">
                <ele>50.125977</ele>
                <time>2009-05-31T03:38:08Z</time>
            </trkpt>
            <trkpt lon="101.073604" lat="14.453808">
                <ele>49.645264</ele>
                <time>2009-05-31T03:38:21Z</time>
            </trkpt>
            <trkpt lon="101.073677" lat="14.454011">
                <ele>48.683960</ele>
                <time>2009-05-31T03:38:40Z</time>
            </trkpt>
            <trkpt lon="101.073842" lat="14.454437">
                <ele>48.203369</ele>
                <time>2009-05-31T03:38:55Z</time>
            </trkpt>
            <trkpt lon="101.074122" lat="14.454565">
                <ele>49.645264</ele>
                <time>2009-05-31T03:39:06Z</time>
            </trkpt>
            <trkpt lon="101.074030" lat="14.454738">
                <ele>50.125977</ele>
                <time>2009-05-31T03:39:15Z</time>
            </trkpt>
            <trkpt lon="101.073757" lat="14.454890">
                <ele>51.567871</ele>
                <time>2009-05-31T03:39:29Z</time>
            </trkpt>
            <trkpt lon="101.073778" lat="14.454954">
                <ele>51.567871</ele>
                <time>2009-05-31T03:39:33Z</time>
            </trkpt>
            <trkpt lon="101.074006" lat="14.455211">
                <ele>50.125977</ele>
                <time>2009-05-31T03:39:50Z</time>
            </trkpt>
            <trkpt lon="101.074070" lat="14.455274">
                <ele>50.125977</ele>
                <time>2009-05-31T03:40:02Z</time>
            </trkpt>
            <trkpt lon="101.074083" lat="14.455284">
                <ele>51.087158</ele>
                <time>2009-05-31T03:40:13Z</time>
            </trkpt>
            <trkpt lon="101.074084" lat="14.455343">
                <ele>50.606567</ele>
                <time>2009-05-31T03:40:17Z</time>
            </trkpt>
            <trkpt lon="101.074070" lat="14.455419">
                <ele>49.645264</ele>
                <time>2009-05-31T03:40:30Z</time>
            </trkpt>
            <trkpt lon="101.074084" lat="14.455439">
                <ele>49.645264</ele>
                <time>2009-05-31T03:40:35Z</time>
            </trkpt>
            <trkpt lon="101.074211" lat="14.455550">
                <ele>49.164551</ele>
                <time>2009-05-31T03:40:46Z</time>
            </trkpt>
            <trkpt lon="101.074466" lat="14.455769">
                <ele>47.722534</ele>
                <time>2009-05-31T03:40:59Z</time>
            </trkpt>
            <trkpt lon="101.074884" lat="14.456097">
                <ele>46.280640</ele>
                <time>2009-05-31T03:41:15Z</time>
            </trkpt>
            <trkpt lon="101.075469" lat="14.456587">
                <ele>47.241821</ele>
                <time>2009-05-31T03:41:33Z</time>
            </trkpt>
            <trkpt lon="101.075639" lat="14.456718">
                <ele>46.761231</ele>
                <time>2009-05-31T03:41:38Z</time>
            </trkpt>
            <trkpt lon="101.076002" lat="14.456493">
                <ele>46.761231</ele>
                <time>2009-05-31T03:41:50Z</time>
            </trkpt>
            <trkpt lon="101.076445" lat="14.456217">
                <ele>47.722534</ele>
                <time>2009-05-31T03:42:05Z</time>
            </trkpt>
            <trkpt lon="101.076501" lat="14.456214">
                <ele>48.683960</ele>
                <time>2009-05-31T03:42:07Z</time>
            </trkpt>
            <trkpt lon="101.076859" lat="14.456564">
                <ele>50.606567</ele>
                <time>2009-05-31T03:42:21Z</time>
            </trkpt>
            <trkpt lon="101.077360" lat="14.457028">
                <ele>53.971191</ele>
                <time>2009-05-31T03:42:41Z</time>
            </trkpt>
            <trkpt lon="101.077547" lat="14.457199">
                <ele>55.413086</ele>
                <time>2009-05-31T03:42:50Z</time>
            </trkpt>
            <trkpt lon="101.077769" lat="14.457069">
                <ele>54.932373</ele>
                <time>2009-05-31T03:43:00Z</time>
            </trkpt>
            <trkpt lon="101.078086" lat="14.456732">
                <ele>57.335815</ele>
                <time>2009-05-31T03:43:14Z</time>
            </trkpt>
            <trkpt lon="101.078413" lat="14.456386">
                <ele>60.219727</ele>
                <time>2009-05-31T03:43:30Z</time>
            </trkpt>
            <trkpt lon="101.078454" lat="14.456330">
                <ele>60.700317</ele>
                <time>2009-05-31T03:43:35Z</time>
            </trkpt>
            <trkpt lon="101.078433" lat="14.456280">
                <ele>61.181030</ele>
                <time>2009-05-31T03:43:48Z</time>
            </trkpt>
            <trkpt lon="101.078431" lat="14.456250">
                <ele>63.103638</ele>
                <time>2009-05-31T03:43:59Z</time>
            </trkpt>
            <trkpt lon="101.078531" lat="14.456146">
                <ele>63.103638</ele>
                <time>2009-05-31T03:44:15Z</time>
            </trkpt>
            <trkpt lon="101.078603" lat="14.456120">
                <ele>62.142334</ele>
                <time>2009-05-31T03:44:30Z</time>
            </trkpt>
            <trkpt lon="101.078670" lat="14.456116">
                <ele>63.584351</ele>
                <time>2009-05-31T03:44:38Z</time>
            </trkpt>
            <trkpt lon="101.078774" lat="14.456136">
                <ele>64.545654</ele>
                <time>2009-05-31T03:44:51Z</time>
            </trkpt>
            <trkpt lon="101.078809" lat="14.456165">
                <ele>64.545654</ele>
                <time>2009-05-31T03:44:55Z</time>
            </trkpt>
            <trkpt lon="101.078900" lat="14.456216">
                <ele>65.987671</ele>
                <time>2009-05-31T03:45:10Z</time>
            </trkpt>
            <trkpt lon="101.078991" lat="14.456204">
                <ele>65.987671</ele>
                <time>2009-05-31T03:45:15Z</time>
            </trkpt>
            <trkpt lon="101.079224" lat="14.456023">
                <ele>65.026367</ele>
                <time>2009-05-31T03:45:24Z</time>
            </trkpt>
            <trkpt lon="101.079678" lat="14.455449">
                <ele>64.065063</ele>
                <time>2009-05-31T03:45:37Z</time>
            </trkpt>
            <trkpt lon="101.079755" lat="14.455347">
                <ele>63.584351</ele>
                <time>2009-05-31T03:45:39Z</time>
            </trkpt>
            <trkpt lon="101.080042" lat="14.454836">
                <ele>62.622925</ele>
                <time>2009-05-31T03:45:49Z</time>
            </trkpt>
            <trkpt lon="101.080110" lat="14.454686">
                <ele>61.181030</ele>
                <time>2009-05-31T03:45:54Z</time>
            </trkpt>
            <trkpt lon="101.080161" lat="14.454554">
                <ele>59.739136</ele>
                <time>2009-05-31T03:46:03Z</time>
            </trkpt>
            <trkpt lon="101.080198" lat="14.454431">
                <ele>59.739136</ele>
                <time>2009-05-31T03:46:07Z</time>
            </trkpt>
            <trkpt lon="101.081125" lat="14.454614">
                <ele>59.258423</ele>
                <time>2009-05-31T03:46:14Z</time>
            </trkpt>
            <trkpt lon="101.081228" lat="14.454586">
                <ele>59.258423</ele>
                <time>2009-05-31T03:46:16Z</time>
            </trkpt>
            <trkpt lon="101.081587" lat="14.454387">
                <ele>59.258423</ele>
                <time>2009-05-31T03:46:28Z</time>
            </trkpt>
            <trkpt lon="101.081962" lat="14.454089">
                <ele>57.816528</ele>
                <time>2009-05-31T03:46:46Z</time>
            </trkpt>
            <trkpt lon="101.082029" lat="14.454087">
                <ele>58.297119</ele>
                <time>2009-05-31T03:46:57Z</time>
            </trkpt>
            <trkpt lon="101.082062" lat="14.454099">
                <ele>58.777710</ele>
                <time>2009-05-31T03:47:22Z</time>
            </trkpt>
            <trkpt lon="101.082104" lat="14.454107">
                <ele>59.258423</ele>
                <time>2009-05-31T03:47:32Z</time>
            </trkpt>
            <trkpt lon="101.082165" lat="14.454047">
                <ele>57.816528</ele>
                <time>2009-05-31T03:47:38Z</time>
            </trkpt>
            <trkpt lon="101.082124" lat="14.453931">
                <ele>57.335815</ele>
                <time>2009-05-31T03:47:47Z</time>
            </trkpt>
            <trkpt lon="101.082053" lat="14.453796">
                <ele>57.335815</ele>
                <time>2009-05-31T03:48:02Z</time>
            </trkpt>
            <trkpt lon="101.082051" lat="14.453760">
                <ele>60.700317</ele>
                <time>2009-05-31T03:48:25Z</time>
            </trkpt>
            <trkpt lon="101.082024" lat="14.453697">
                <ele>59.739136</ele>
                <time>2009-05-31T03:48:36Z</time>
            </trkpt>
            <trkpt lon="101.082090" lat="14.453644">
                <ele>59.258423</ele>
                <time>2009-05-31T03:48:47Z</time>
            </trkpt>
            <trkpt lon="101.082297" lat="14.453567">
                <ele>59.258423</ele>
                <time>2009-05-31T03:49:01Z</time>
            </trkpt>
            <trkpt lon="101.082317" lat="14.453505">
                <ele>58.777710</ele>
                <time>2009-05-31T03:49:05Z</time>
            </trkpt>
            <trkpt lon="101.082355" lat="14.453418">
                <ele>58.777710</ele>
                <time>2009-05-31T03:49:11Z</time>
            </trkpt>
            <trkpt lon="101.082425" lat="14.453261">
                <ele>58.777710</ele>
                <time>2009-05-31T03:49:25Z</time>
            </trkpt>
            <trkpt lon="101.082330" lat="14.453032">
                <ele>59.258423</ele>
                <time>2009-05-31T03:49:41Z</time>
            </trkpt>
            <trkpt lon="101.082297" lat="14.452882">
                <ele>61.181030</ele>
                <time>2009-05-31T03:49:53Z</time>
            </trkpt>
            <trkpt lon="101.082212" lat="14.452578">
                <ele>62.622925</ele>
                <time>2009-05-31T03:50:12Z</time>
            </trkpt>
            <trkpt lon="101.082115" lat="14.452275">
                <ele>65.026367</ele>
                <time>2009-05-31T03:50:31Z</time>
            </trkpt>
            <trkpt lon="101.082061" lat="14.452125">
                <ele>66.468262</ele>
                <time>2009-05-31T03:50:47Z</time>
            </trkpt>
            <trkpt lon="101.082063" lat="14.452107">
                <ele>66.948975</ele>
                <time>2009-05-31T03:50:49Z</time>
            </trkpt>
            <trkpt lon="101.082215" lat="14.452154">
                <ele>65.987671</ele>
                <time>2009-05-31T03:51:00Z</time>
            </trkpt>
            <trkpt lon="101.082511" lat="14.452282">
                <ele>66.948975</ele>
                <time>2009-05-31T03:51:12Z</time>
            </trkpt>
            <trkpt lon="101.083197" lat="14.452426">
                <ele>66.468262</ele>
                <time>2009-05-31T03:51:29Z</time>
            </trkpt>
            <trkpt lon="101.083966" lat="14.452480">
                <ele>65.026367</ele>
                <time>2009-05-31T03:51:45Z</time>
            </trkpt>
            <trkpt lon="101.084026" lat="14.452484">
                <ele>64.545654</ele>
                <time>2009-05-31T03:51:46Z</time>
            </trkpt>
            <trkpt lon="101.085047" lat="14.452545">
                <ele>62.142334</ele>
                <time>2009-05-31T03:52:00Z</time>
            </trkpt>
            <trkpt lon="101.085542" lat="14.452558">
                <ele>65.026367</ele>
                <time>2009-05-31T03:52:11Z</time>
            </trkpt>
            <trkpt lon="101.086002" lat="14.452637">
                <ele>69.832886</ele>
                <time>2009-05-31T03:52:29Z</time>
            </trkpt>
            <trkpt lon="101.086481" lat="14.452828">
                <ele>67.910278</ele>
                <time>2009-05-31T03:52:41Z</time>
            </trkpt>
            <trkpt lon="101.086905" lat="14.453005">
                <ele>69.352295</ele>
                <time>2009-05-31T03:52:50Z</time>
            </trkpt>
            <trkpt lon="101.087392" lat="14.453158">
                <ele>72.236206</ele>
                <time>2009-05-31T03:53:06Z</time>
            </trkpt>
            <trkpt lon="101.087694" lat="14.453158">
                <ele>75.120239</ele>
                <time>2009-05-31T03:53:25Z</time>
            </trkpt>
            <trkpt lon="101.088009" lat="14.453158">
                <ele>78.484741</ele>
                <time>2009-05-31T03:53:47Z</time>
            </trkpt>
            <trkpt lon="101.088274" lat="14.453158">
                <ele>82.330078</ele>
                <time>2009-05-31T03:54:06Z</time>
            </trkpt>
            <trkpt lon="101.088561" lat="14.453158">
                <ele>87.136597</ele>
                <time>2009-05-31T03:54:25Z</time>
            </trkpt>
            <trkpt lon="101.088875" lat="14.453167">
                <ele>89.059326</ele>
                <time>2009-05-31T03:54:43Z</time>
            </trkpt>
            <trkpt lon="101.089298" lat="14.453333">
                <ele>91.462524</ele>
                <time>2009-05-31T03:55:03Z</time>
            </trkpt>
            <trkpt lon="101.089808" lat="14.453332">
                <ele>88.098022</ele>
                <time>2009-05-31T03:55:15Z</time>
            </trkpt>
            <trkpt lon="101.090739" lat="14.453244">
                <ele>81.849365</ele>
                <time>2009-05-31T03:55:27Z</time>
            </trkpt>
            <trkpt lon="101.090828" lat="14.453244">
                <ele>81.849365</ele>
                <time>2009-05-31T03:55:28Z</time>
            </trkpt>
            <trkpt lon="101.091292" lat="14.453327">
                <ele>79.926636</ele>
                <time>2009-05-31T03:55:36Z</time>
            </trkpt>
            <trkpt lon="101.092077" lat="14.453587">
                <ele>79.446045</ele>
                <time>2009-05-31T03:55:51Z</time>
            </trkpt>
            <trkpt lon="101.092138" lat="14.453587">
                <ele>79.446045</ele>
                <time>2009-05-31T03:55:52Z</time>
            </trkpt>
            <trkpt lon="101.092260" lat="14.453603">
                <ele>79.446045</ele>
                <time>2009-05-31T03:55:54Z</time>
            </trkpt>
            <trkpt lon="101.092923" lat="14.453786">
                <ele>80.407471</ele>
                <time>2009-05-31T03:56:07Z</time>
            </trkpt>
            <trkpt lon="101.093154" lat="14.453862">
                <ele>80.407471</ele>
                <time>2009-05-31T03:56:13Z</time>
            </trkpt>
            <trkpt lon="101.093732" lat="14.454081">
                <ele>81.849365</ele>
                <time>2009-05-31T03:56:30Z</time>
            </trkpt>
            <trkpt lon="101.093788" lat="14.454102">
                <ele>82.810791</ele>
                <time>2009-05-31T03:56:36Z</time>
            </trkpt>
            <trkpt lon="101.093275" lat="14.454885">
                <ele>80.888184</ele>
                <time>2009-05-31T03:56:53Z</time>
            </trkpt>
            <trkpt lon="101.092535" lat="14.455807">
                <ele>80.407471</ele>
                <time>2009-05-31T03:57:13Z</time>
            </trkpt>
            <trkpt lon="101.091707" lat="14.456620">
                <ele>79.446045</ele>
                <time>2009-05-31T03:57:28Z</time>
            </trkpt>
            <trkpt lon="101.090650" lat="14.458036">
                <ele>77.523438</ele>
                <time>2009-05-31T03:57:48Z</time>
            </trkpt>
            <trkpt lon="101.089429" lat="14.459694">
                <ele>75.120239</ele>
                <time>2009-05-31T03:58:11Z</time>
            </trkpt>
            <trkpt lon="101.089056" lat="14.460220">
                <ele>73.678223</ele>
                <time>2009-05-31T03:58:19Z</time>
            </trkpt>
            <trkpt lon="101.088943" lat="14.460364">
                <ele>73.197632</ele>
                <time>2009-05-31T03:58:22Z</time>
            </trkpt>
            <trkpt lon="101.088909" lat="14.460857">
                <ele>74.158813</ele>
                <time>2009-05-31T03:58:33Z</time>
            </trkpt>
            <trkpt lon="101.089164" lat="14.461208">
                <ele>76.081421</ele>
                <time>2009-05-31T03:58:47Z</time>
            </trkpt>
            <trkpt lon="101.089384" lat="14.461476">
                <ele>76.562134</ele>
                <time>2009-05-31T03:58:59Z</time>
            </trkpt>
            <trkpt lon="101.089768" lat="14.461996">
                <ele>75.120239</ele>
                <time>2009-05-31T03:59:14Z</time>
            </trkpt>
            <trkpt lon="101.089981" lat="14.462458">
                <ele>74.639526</ele>
                <time>2009-05-31T03:59:25Z</time>
            </trkpt>
            <trkpt lon="101.090107" lat="14.462654">
                <ele>72.716919</ele>
                <time>2009-05-31T03:59:31Z</time>
            </trkpt>
            <trkpt lon="101.090249" lat="14.462852">
                <ele>73.678223</ele>
                <time>2009-05-31T03:59:46Z</time>
            </trkpt>
            <trkpt lon="101.090259" lat="14.462838">
                <ele>77.042847</ele>
                <time>2009-05-31T04:00:18Z</time>
            </trkpt>
            <trkpt lon="101.090224" lat="14.462786">
                <ele>77.042847</ele>
                <time>2009-05-31T04:00:22Z</time>
            </trkpt>
            <trkpt lon="101.089939" lat="14.462352">
                <ele>74.639526</ele>
                <time>2009-05-31T04:00:37Z</time>
            </trkpt>
            <trkpt lon="101.089720" lat="14.461912">
                <ele>76.562134</ele>
                <time>2009-05-31T04:00:53Z</time>
            </trkpt>
            <trkpt lon="101.089479" lat="14.461644">
                <ele>77.042847</ele>
                <time>2009-05-31T04:01:06Z</time>
            </trkpt>
            <trkpt lon="101.089332" lat="14.461369">
                <ele>78.965454</ele>
                <time>2009-05-31T04:01:24Z</time>
            </trkpt>
            <trkpt lon="101.089320" lat="14.461350">
                <ele>78.965454</ele>
                <time>2009-05-31T04:01:26Z</time>
            </trkpt>
            <trkpt lon="101.089315" lat="14.461294">
                <ele>80.888184</ele>
                <time>2009-05-31T04:01:41Z</time>
            </trkpt>
            <trkpt lon="101.089324" lat="14.461291">
                <ele>78.965454</ele>
                <time>2009-05-31T04:02:17Z</time>
            </trkpt>
            <trkpt lon="101.089241" lat="14.461239">
                <ele>78.484741</ele>
                <time>2009-05-31T04:02:22Z</time>
            </trkpt>
            <trkpt lon="101.088953" lat="14.460935">
                <ele>76.562134</ele>
                <time>2009-05-31T04:02:34Z</time>
            </trkpt>
            <trkpt lon="101.088924" lat="14.460806">
                <ele>76.081421</ele>
                <time>2009-05-31T04:02:37Z</time>
            </trkpt>
            <trkpt lon="101.088938" lat="14.460529">
                <ele>74.639526</ele>
                <time>2009-05-31T04:02:43Z</time>
            </trkpt>
            <trkpt lon="101.088833" lat="14.460443">
                <ele>74.158813</ele>
                <time>2009-05-31T04:02:47Z</time>
            </trkpt>
            <trkpt lon="101.088371" lat="14.460431">
                <ele>73.678223</ele>
                <time>2009-05-31T04:02:57Z</time>
            </trkpt>
            <trkpt lon="101.087392" lat="14.460712">
                <ele>73.678223</ele>
                <time>2009-05-31T04:03:15Z</time>
            </trkpt>
            <trkpt lon="101.086254" lat="14.461280">
                <ele>70.313477</ele>
                <time>2009-05-31T04:03:33Z</time>
            </trkpt>
            <trkpt lon="101.085036" lat="14.462058">
                <ele>68.871582</ele>
                <time>2009-05-31T04:03:55Z</time>
            </trkpt>
            <trkpt lon="101.083866" lat="14.462873">
                <ele>68.871582</ele>
                <time>2009-05-31T04:04:16Z</time>
            </trkpt>
            <trkpt lon="101.083036" lat="14.463718">
                <ele>67.910278</ele>
                <time>2009-05-31T04:04:34Z</time>
            </trkpt>
            <trkpt lon="101.082574" lat="14.464723">
                <ele>64.545654</ele>
                <time>2009-05-31T04:04:50Z</time>
            </trkpt>
            <trkpt lon="101.082273" lat="14.465403">
                <ele>61.661743</ele>
                <time>2009-05-31T04:05:00Z</time>
            </trkpt>
            <trkpt lon="101.082013" lat="14.465590">
                <ele>60.219727</ele>
                <time>2009-05-31T04:05:04Z</time>
            </trkpt>
            <trkpt lon="101.080836" lat="14.466252">
                <ele>61.181030</ele>
                <time>2009-05-31T04:05:22Z</time>
            </trkpt>
            <trkpt lon="101.079540" lat="14.467159">
                <ele>61.661743</ele>
                <time>2009-05-31T04:05:42Z</time>
            </trkpt>
            <trkpt lon="101.078750" lat="14.467810">
                <ele>63.584351</ele>
                <time>2009-05-31T04:05:55Z</time>
            </trkpt>
            <trkpt lon="101.078198" lat="14.468024">
                <ele>61.661743</ele>
                <time>2009-05-31T04:06:06Z</time>
            </trkpt>
            <trkpt lon="101.078167" lat="14.468027">
                <ele>63.584351</ele>
                <time>2009-05-31T04:06:17Z</time>
            </trkpt>
            <trkpt lon="101.078167" lat="14.468027">
                <ele>68.390869</ele>
                <time>2009-05-31T04:06:37Z</time>
            </trkpt>
            <trkpt lon="101.078167" lat="14.468027">
                <ele>65.987671</ele>
                <time>2009-05-31T04:06:52Z</time>
            </trkpt>
            <trkpt lon="101.078167" lat="14.468027">
                <ele>65.507080</ele>
                <time>2009-05-31T04:06:53Z</time>
            </trkpt>
            <trkpt lon="101.078167" lat="14.468027">
                <ele>64.065063</ele>
                <time>2009-05-31T04:07:06Z</time>
            </trkpt>
            <trkpt lon="101.078167" lat="14.468027">
                <ele>74.158813</ele>
                <time>2009-05-31T04:10:17Z</time>
            </trkpt>
            <trkpt lon="101.078167" lat="14.468027">
                <ele>65.987671</ele>
                <time>2009-05-31T04:11:42Z</time>
            </trkpt>
            <trkpt lon="101.078167" lat="14.468027">
                <ele>68.390869</ele>
                <time>2009-05-31T04:12:08Z</time>
            </trkpt>
            <trkpt lon="101.078167" lat="14.468027">
                <ele>65.987671</ele>
                <time>2009-05-31T04:13:02Z</time>
            </trkpt>
            <trkpt lon="101.078167" lat="14.468027">
                <ele>65.507080</ele>
                <time>2009-05-31T04:14:24Z</time>
            </trkpt>
            <trkpt lon="101.078167" lat="14.468027">
                <ele>65.026367</ele>
                <time>2009-05-31T04:15:05Z</time>
            </trkpt>
            <trkpt lon="101.078167" lat="14.468027">
                <ele>60.219727</ele>
                <time>2009-05-31T04:17:41Z</time>
            </trkpt>
            <trkpt lon="101.078167" lat="14.468027">
                <ele>60.700317</ele>
                <time>2009-05-31T04:17:43Z</time>
            </trkpt>
            <trkpt lon="101.078167" lat="14.468027">
                <ele>61.181030</ele>
                <time>2009-05-31T04:17:58Z</time>
            </trkpt>
            <trkpt lon="101.078151" lat="14.468028">
                <ele>60.219727</ele>
                <time>2009-05-31T04:18:14Z</time>
            </trkpt>
            <trkpt lon="101.078153" lat="14.468053">
                <ele>59.258423</ele>
                <time>2009-05-31T04:18:17Z</time>
            </trkpt>
            <trkpt lon="101.078303" lat="14.468362">
                <ele>55.413086</ele>
                <time>2009-05-31T04:18:29Z</time>
            </trkpt>
            <trkpt lon="101.078498" lat="14.468699">
                <ele>56.855103</ele>
                <time>2009-05-31T04:18:39Z</time>
            </trkpt>
            <trkpt lon="101.078558" lat="14.468811">
                <ele>55.413086</ele>
                <time>2009-05-31T04:18:42Z</time>
            </trkpt>
            <trkpt lon="101.078840" lat="14.469262">
                <ele>55.413086</ele>
                <time>2009-05-31T04:18:55Z</time>
            </trkpt>
            <trkpt lon="101.078775" lat="14.469493">
                <ele>55.413086</ele>
                <time>2009-05-31T04:19:00Z</time>
            </trkpt>
            <trkpt lon="101.078479" lat="14.469690">
                <ele>54.932373</ele>
                <time>2009-05-31T04:19:07Z</time>
            </trkpt>
            <trkpt lon="101.078124" lat="14.469786">
                <ele>54.451782</ele>
                <time>2009-05-31T04:19:14Z</time>
            </trkpt>
            <trkpt lon="101.077972" lat="14.469873">
                <ele>54.451782</ele>
                <time>2009-05-31T04:19:18Z</time>
            </trkpt>
            <trkpt lon="101.077805" lat="14.470032">
                <ele>53.971191</ele>
                <time>2009-05-31T04:19:24Z</time>
            </trkpt>
            <trkpt lon="101.077758" lat="14.470310">
                <ele>54.451782</ele>
                <time>2009-05-31T04:19:32Z</time>
            </trkpt>
            <trkpt lon="101.077683" lat="14.470339">
                <ele>54.451782</ele>
                <time>2009-05-31T04:19:34Z</time>
            </trkpt>
            <trkpt lon="101.077475" lat="14.470411">
                <ele>54.932373</ele>
                <time>2009-05-31T04:19:39Z</time>
            </trkpt>
            <trkpt lon="101.076966" lat="14.470522">
                <ele>53.490479</ele>
                <time>2009-05-31T04:19:52Z</time>
            </trkpt>
            <trkpt lon="101.076404" lat="14.470557">
                <ele>51.567871</ele>
                <time>2009-05-31T04:20:06Z</time>
            </trkpt>
            <trkpt lon="101.075871" lat="14.470786">
                <ele>51.567871</ele>
                <time>2009-05-31T04:20:20Z</time>
            </trkpt>
            <trkpt lon="101.075454" lat="14.470696">
                <ele>51.567871</ele>
                <time>2009-05-31T04:20:33Z</time>
            </trkpt>
            <trkpt lon="101.075229" lat="14.470682">
                <ele>51.567871</ele>
                <time>2009-05-31T04:20:43Z</time>
            </trkpt>
            <trkpt lon="101.075117" lat="14.470779">
                <ele>50.606567</ele>
                <time>2009-05-31T04:20:52Z</time>
            </trkpt>
            <trkpt lon="101.075020" lat="14.470916">
                <ele>50.125977</ele>
                <time>2009-05-31T04:21:02Z</time>
            </trkpt>
            <trkpt lon="101.074912" lat="14.470937">
                <ele>51.087158</ele>
                <time>2009-05-31T04:21:15Z</time>
            </trkpt>
            <trkpt lon="101.074848" lat="14.470929">
                <ele>51.567871</ele>
                <time>2009-05-31T04:21:28Z</time>
            </trkpt>
            <trkpt lon="101.074629" lat="14.471052">
                <ele>52.529175</ele>
                <time>2009-05-31T04:21:41Z</time>
            </trkpt>
            <trkpt lon="101.074459" lat="14.471093">
                <ele>52.048584</ele>
                <time>2009-05-31T04:21:50Z</time>
            </trkpt>
            <trkpt lon="101.074352" lat="14.471142">
                <ele>51.567871</ele>
                <time>2009-05-31T04:21:54Z</time>
            </trkpt>
            <trkpt lon="101.074053" lat="14.471322">
                <ele>50.606567</ele>
                <time>2009-05-31T04:22:07Z</time>
            </trkpt>
            <trkpt lon="101.073763" lat="14.471555">
                <ele>51.567871</ele>
                <time>2009-05-31T04:22:18Z</time>
            </trkpt>
            <trkpt lon="101.073488" lat="14.471751">
                <ele>50.606567</ele>
                <time>2009-05-31T04:22:32Z</time>
            </trkpt>
            <trkpt lon="101.073337" lat="14.471833">
                <ele>51.087158</ele>
                <time>2009-05-31T04:22:45Z</time>
            </trkpt>
            <trkpt lon="101.073269" lat="14.471833">
                <ele>52.529175</ele>
                <time>2009-05-31T04:23:01Z</time>
            </trkpt>
            <trkpt lon="101.073228" lat="14.471839">
                <ele>55.413086</ele>
                <time>2009-05-31T04:23:32Z</time>
            </trkpt>
            <trkpt lon="101.073201" lat="14.471844">
                <ele>54.451782</ele>
                <time>2009-05-31T04:23:46Z</time>
            </trkpt>
            <trkpt lon="101.073183" lat="14.471845">
                <ele>52.048584</ele>
                <time>2009-05-31T04:24:09Z</time>
            </trkpt>
            <trkpt lon="101.073165" lat="14.471838">
                <ele>50.606567</ele>
                <time>2009-05-31T04:24:35Z</time>
            </trkpt>
            <trkpt lon="101.073143" lat="14.471839">
                <ele>51.567871</ele>
                <time>2009-05-31T04:24:58Z</time>
            </trkpt>
            <trkpt lon="101.073115" lat="14.471843">
                <ele>51.567871</ele>
                <time>2009-05-31T04:25:25Z</time>
            </trkpt>
            <trkpt lon="101.073099" lat="14.471845">
                <ele>51.567871</ele>
                <time>2009-05-31T04:25:59Z</time>
            </trkpt>
            <trkpt lon="101.073088" lat="14.471843">
                <ele>50.125977</ele>
                <time>2009-05-31T04:26:23Z</time>
            </trkpt>
            <trkpt lon="101.073064" lat="14.471839">
                <ele>50.125977</ele>
                <time>2009-05-31T04:26:45Z</time>
            </trkpt>
            <trkpt lon="101.073030" lat="14.471839">
                <ele>50.606567</ele>
                <time>2009-05-31T04:27:05Z</time>
            </trkpt>
            <trkpt lon="101.072998" lat="14.471851">
                <ele>50.125977</ele>
                <time>2009-05-31T04:27:17Z</time>
            </trkpt>
            <trkpt lon="101.072979" lat="14.471849">
                <ele>50.125977</ele>
                <time>2009-05-31T04:27:32Z</time>
            </trkpt>
            <trkpt lon="101.072882" lat="14.471853">
                <ele>49.645264</ele>
                <time>2009-05-31T04:27:41Z</time>
            </trkpt>
            <trkpt lon="101.072706" lat="14.471874">
                <ele>48.683960</ele>
                <time>2009-05-31T04:27:51Z</time>
            </trkpt>
            <trkpt lon="101.072341" lat="14.471965">
                <ele>49.164551</ele>
                <time>2009-05-31T04:28:06Z</time>
            </trkpt>
            <trkpt lon="101.071882" lat="14.472040">
                <ele>49.164551</ele>
                <time>2009-05-31T04:28:21Z</time>
            </trkpt>
            <trkpt lon="101.071467" lat="14.472265">
                <ele>49.645264</ele>
                <time>2009-05-31T04:28:34Z</time>
            </trkpt>
            <trkpt lon="101.071282" lat="14.472394">
                <ele>49.164551</ele>
                <time>2009-05-31T04:28:39Z</time>
            </trkpt>
            <trkpt lon="101.071204" lat="14.472438">
                <ele>49.164551</ele>
                <time>2009-05-31T04:28:41Z</time>
            </trkpt>
            <trkpt lon="101.070830" lat="14.472425">
                <ele>49.164551</ele>
                <time>2009-05-31T04:28:51Z</time>
            </trkpt>
            <trkpt lon="101.070408" lat="14.472402">
                <ele>47.241821</ele>
                <time>2009-05-31T04:29:00Z</time>
            </trkpt>
            <trkpt lon="101.070009" lat="14.472455">
                <ele>48.203369</ele>
                <time>2009-05-31T04:29:08Z</time>
            </trkpt>
            <trkpt lon="101.069522" lat="14.472469">
                <ele>47.722534</ele>
                <time>2009-05-31T04:29:19Z</time>
            </trkpt>
            <trkpt lon="101.069158" lat="14.472449">
                <ele>49.645264</ele>
                <time>2009-05-31T04:29:27Z</time>
            </trkpt>
            <trkpt lon="101.068974" lat="14.472508">
                <ele>50.125977</ele>
                <time>2009-05-31T04:29:34Z</time>
            </trkpt>
            <trkpt lon="101.069089" lat="14.472848">
                <ele>48.683960</ele>
                <time>2009-05-31T04:29:46Z</time>
            </trkpt>
            <trkpt lon="101.069273" lat="14.473273">
                <ele>48.203369</ele>
                <time>2009-05-31T04:29:54Z</time>
            </trkpt>
            <trkpt lon="101.069330" lat="14.473628">
                <ele>47.722534</ele>
                <time>2009-05-31T04:30:00Z</time>
            </trkpt>
            <trkpt lon="101.069549" lat="14.474468">
                <ele>49.164551</ele>
                <time>2009-05-31T04:30:17Z</time>
            </trkpt>
            <trkpt lon="101.069657" lat="14.475064">
                <ele>51.087158</ele>
                <time>2009-05-31T04:30:33Z</time>
            </trkpt>
            <trkpt lon="101.069719" lat="14.475498">
                <ele>53.490479</ele>
                <time>2009-05-31T04:30:48Z</time>
            </trkpt>
            <trkpt lon="101.069772" lat="14.475861">
                <ele>55.413086</ele>
                <time>2009-05-31T04:31:02Z</time>
            </trkpt>
            <trkpt lon="101.069706" lat="14.476171">
                <ele>56.855103</ele>
                <time>2009-05-31T04:31:14Z</time>
            </trkpt>
            <trkpt lon="101.069695" lat="14.476275">
                <ele>57.816528</ele>
                <time>2009-05-31T04:31:18Z</time>
            </trkpt>
            <trkpt lon="101.069544" lat="14.476331">
                <ele>57.335815</ele>
                <time>2009-05-31T04:31:27Z</time>
            </trkpt>
            <trkpt lon="101.069439" lat="14.476677">
                <ele>57.816528</ele>
                <time>2009-05-31T04:31:39Z</time>
            </trkpt>
            <trkpt lon="101.069276" lat="14.477408">
                <ele>57.335815</ele>
                <time>2009-05-31T04:31:56Z</time>
            </trkpt>
            <trkpt lon="101.069146" lat="14.478046">
                <ele>60.219727</ele>
                <time>2009-05-31T04:32:12Z</time>
            </trkpt>
            <trkpt lon="101.069046" lat="14.478426">
                <ele>63.103638</ele>
                <time>2009-05-31T04:32:25Z</time>
            </trkpt>
            <trkpt lon="101.068956" lat="14.478799">
                <ele>65.026367</ele>
                <time>2009-05-31T04:32:41Z</time>
            </trkpt>
            <trkpt lon="101.068908" lat="14.479089">
                <ele>68.390869</ele>
                <time>2009-05-31T04:32:56Z</time>
            </trkpt>
            <trkpt lon="101.068831" lat="14.479408">
                <ele>70.313477</ele>
                <time>2009-05-31T04:33:14Z</time>
            </trkpt>
            <trkpt lon="101.068758" lat="14.479697">
                <ele>72.236206</ele>
                <time>2009-05-31T04:33:33Z</time>
            </trkpt>
            <trkpt lon="101.068692" lat="14.479943">
                <ele>74.639526</ele>
                <time>2009-05-31T04:33:51Z</time>
            </trkpt>
            <trkpt lon="101.068650" lat="14.480129">
                <ele>77.523438</ele>
                <time>2009-05-31T04:34:04Z</time>
            </trkpt>
            <trkpt lon="101.068583" lat="14.480447">
                <ele>78.965454</ele>
                <time>2009-05-31T04:34:21Z</time>
            </trkpt>
            <trkpt lon="101.068883" lat="14.480681">
                <ele>80.888184</ele>
                <time>2009-05-31T04:34:34Z</time>
            </trkpt>
            <trkpt lon="101.069468" lat="14.480948">
                <ele>81.368774</ele>
                <time>2009-05-31T04:34:48Z</time>
            </trkpt>
            <trkpt lon="101.069984" lat="14.481582">
                <ele>80.407471</ele>
                <time>2009-05-31T04:35:05Z</time>
            </trkpt>
            <trkpt lon="101.070396" lat="14.482008">
                <ele>80.888184</ele>
                <time>2009-05-31T04:35:20Z</time>
            </trkpt>
            <trkpt lon="101.070477" lat="14.482092">
                <ele>80.888184</ele>
                <time>2009-05-31T04:35:23Z</time>
            </trkpt>
            <trkpt lon="101.070641" lat="14.482262">
                <ele>81.368774</ele>
                <time>2009-05-31T04:35:29Z</time>
            </trkpt>
            <trkpt lon="101.070983" lat="14.482615">
                <ele>79.926636</ele>
                <time>2009-05-31T04:35:39Z</time>
            </trkpt>
            <trkpt lon="101.071609" lat="14.483382">
                <ele>74.158813</ele>
                <time>2009-05-31T04:35:52Z</time>
            </trkpt>
            <trkpt lon="101.072118" lat="14.484039">
                <ele>75.600830</ele>
                <time>2009-05-31T04:36:04Z</time>
            </trkpt>
            <trkpt lon="101.072401" lat="14.484343">
                <ele>80.407471</ele>
                <time>2009-05-31T04:36:15Z</time>
            </trkpt>
            <trkpt lon="101.072614" lat="14.484556">
                <ele>81.849365</ele>
                <time>2009-05-31T04:36:26Z</time>
            </trkpt>
            <trkpt lon="101.072992" lat="14.484931">
                <ele>81.849365</ele>
                <time>2009-05-31T04:36:41Z</time>
            </trkpt>
            <trkpt lon="101.073376" lat="14.485255">
                <ele>81.368774</ele>
                <time>2009-05-31T04:36:56Z</time>
            </trkpt>
            <trkpt lon="101.073855" lat="14.485659">
                <ele>81.368774</ele>
                <time>2009-05-31T04:37:12Z</time>
            </trkpt>
            <trkpt lon="101.073951" lat="14.485740">
                <ele>81.368774</ele>
                <time>2009-05-31T04:37:15Z</time>
            </trkpt>
            <trkpt lon="101.073855" lat="14.486091">
                <ele>81.368774</ele>
                <time>2009-05-31T04:37:20Z</time>
            </trkpt>
            <trkpt lon="101.073392" lat="14.486838">
                <ele>78.484741</ele>
                <time>2009-05-31T04:37:36Z</time>
            </trkpt>
            <trkpt lon="101.072938" lat="14.487598">
                <ele>72.716919</ele>
                <time>2009-05-31T04:37:51Z</time>
            </trkpt>
            <trkpt lon="101.072877" lat="14.487706">
                <ele>71.755493</ele>
                <time>2009-05-31T04:37:53Z</time>
            </trkpt>
            <trkpt lon="101.072649" lat="14.487987">
                <ele>69.352295</ele>
                <time>2009-05-31T04:37:59Z</time>
            </trkpt>
            <trkpt lon="101.072294" lat="14.488068">
                <ele>64.545654</ele>
                <time>2009-05-31T04:38:06Z</time>
            </trkpt>
            <trkpt lon="101.071783" lat="14.488139">
                <ele>63.584351</ele>
                <time>2009-05-31T04:38:20Z</time>
            </trkpt>
            <trkpt lon="101.071185" lat="14.488345">
                <ele>65.026367</ele>
                <time>2009-05-31T04:38:36Z</time>
            </trkpt>
            <trkpt lon="101.071028" lat="14.488464">
                <ele>65.507080</ele>
                <time>2009-05-31T04:38:41Z</time>
            </trkpt>
            <trkpt lon="101.071011" lat="14.488586">
                <ele>65.507080</ele>
                <time>2009-05-31T04:38:44Z</time>
            </trkpt>
            <trkpt lon="101.070978" lat="14.489247">
                <ele>65.987671</ele>
                <time>2009-05-31T04:39:00Z</time>
            </trkpt>
            <trkpt lon="101.071052" lat="14.489971">
                <ele>68.871582</ele>
                <time>2009-05-31T04:39:20Z</time>
            </trkpt>
            <trkpt lon="101.071165" lat="14.490352">
                <ele>70.794190</ele>
                <time>2009-05-31T04:39:32Z</time>
            </trkpt>
            <trkpt lon="101.071046" lat="14.490435">
                <ele>70.313477</ele>
                <time>2009-05-31T04:39:38Z</time>
            </trkpt>
            <trkpt lon="101.070742" lat="14.490315">
                <ele>68.871582</ele>
                <time>2009-05-31T04:39:46Z</time>
            </trkpt>
            <trkpt lon="101.069900" lat="14.489950">
                <ele>65.507080</ele>
                <time>2009-05-31T04:40:04Z</time>
            </trkpt>
            <trkpt lon="101.069701" lat="14.489842">
                <ele>64.545654</ele>
                <time>2009-05-31T04:40:08Z</time>
            </trkpt>
            <trkpt lon="101.069170" lat="14.489671">
                <ele>63.584351</ele>
                <time>2009-05-31T04:40:20Z</time>
            </trkpt>
            <trkpt lon="101.068399" lat="14.489288">
                <ele>63.584351</ele>
                <time>2009-05-31T04:40:37Z</time>
            </trkpt>
            <trkpt lon="101.068127" lat="14.489156">
                <ele>64.065063</ele>
                <time>2009-05-31T04:40:47Z</time>
            </trkpt>
            <trkpt lon="101.067745" lat="14.488986">
                <ele>65.987671</ele>
                <time>2009-05-31T04:40:59Z</time>
            </trkpt>
            <trkpt lon="101.067138" lat="14.488723">
                <ele>66.468262</ele>
                <time>2009-05-31T04:41:16Z</time>
            </trkpt>
            <trkpt lon="101.066462" lat="14.488438">
                <ele>65.507080</ele>
                <time>2009-05-31T04:41:31Z</time>
            </trkpt>
            <trkpt lon="101.066323" lat="14.488393">
                <ele>65.026367</ele>
                <time>2009-05-31T04:41:34Z</time>
            </trkpt>
            <trkpt lon="101.066198" lat="14.488385">
                <ele>65.026367</ele>
                <time>2009-05-31T04:41:37Z</time>
            </trkpt>
            <trkpt lon="101.066146" lat="14.488586">
                <ele>64.545654</ele>
                <time>2009-05-31T04:41:46Z</time>
            </trkpt>
            <trkpt lon="101.066224" lat="14.489044">
                <ele>66.468262</ele>
                <time>2009-05-31T04:42:01Z</time>
            </trkpt>
            <trkpt lon="101.066254" lat="14.489441">
                <ele>70.313477</ele>
                <time>2009-05-31T04:42:18Z</time>
            </trkpt>
            <trkpt lon="101.066283" lat="14.489948">
                <ele>74.158813</ele>
                <time>2009-05-31T04:42:40Z</time>
            </trkpt>
            <trkpt lon="101.066292" lat="14.490361">
                <ele>76.081421</ele>
                <time>2009-05-31T04:42:57Z</time>
            </trkpt>
            <trkpt lon="101.066174" lat="14.490408">
                <ele>76.081421</ele>
                <time>2009-05-31T04:43:04Z</time>
            </trkpt>
            <trkpt lon="101.065735" lat="14.490304">
                <ele>72.236206</ele>
                <time>2009-05-31T04:43:20Z</time>
            </trkpt>
            <trkpt lon="101.065387" lat="14.490239">
                <ele>70.313477</ele>
                <time>2009-05-31T04:43:31Z</time>
            </trkpt>
            <trkpt lon="101.065290" lat="14.490232">
                <ele>70.794190</ele>
                <time>2009-05-31T04:43:35Z</time>
            </trkpt>
            <trkpt lon="101.065280" lat="14.490293">
                <ele>73.197632</ele>
                <time>2009-05-31T04:43:40Z</time>
            </trkpt>
            <trkpt lon="101.065262" lat="14.490613">
                <ele>77.042847</ele>
                <time>2009-05-31T04:43:55Z</time>
            </trkpt>
            <trkpt lon="101.065260" lat="14.490887">
                <ele>80.888184</ele>
                <time>2009-05-31T04:44:12Z</time>
            </trkpt>
            <trkpt lon="101.065255" lat="14.491182">
                <ele>82.810791</ele>
                <time>2009-05-31T04:44:31Z</time>
            </trkpt>
            <trkpt lon="101.065257" lat="14.491564">
                <ele>87.617188</ele>
                <time>2009-05-31T04:44:55Z</time>
            </trkpt>
            <trkpt lon="101.065257" lat="14.491815">
                <ele>89.059326</ele>
                <time>2009-05-31T04:45:12Z</time>
            </trkpt>
            <trkpt lon="101.065222" lat="14.492073">
                <ele>92.904541</ele>
                <time>2009-05-31T04:45:31Z</time>
            </trkpt>
            <trkpt lon="101.065018" lat="14.492109">
                <ele>93.385132</ele>
                <time>2009-05-31T04:45:45Z</time>
            </trkpt>
            <trkpt lon="101.064683" lat="14.492069">
                <ele>92.423950</ele>
                <time>2009-05-31T04:46:05Z</time>
            </trkpt>
            <trkpt lon="101.064412" lat="14.492045">
                <ele>93.385132</ele>
                <time>2009-05-31T04:46:23Z</time>
            </trkpt>
            <trkpt lon="101.064232" lat="14.492097">
                <ele>97.230469</ele>
                <time>2009-05-31T04:46:39Z</time>
            </trkpt>
            <trkpt lon="101.064236" lat="14.492180">
                <ele>102.998291</ele>
                <time>2009-05-31T04:46:54Z</time>
            </trkpt>
            <trkpt lon="101.064263" lat="14.492322">
                <ele>105.401733</ele>
                <time>2009-05-31T04:47:15Z</time>
            </trkpt>
            <trkpt lon="101.064267" lat="14.492386">
                <ele>106.363037</ele>
                <time>2009-05-31T04:47:33Z</time>
            </trkpt>
            <trkpt lon="101.064286" lat="14.492499">
                <ele>109.246948</ele>
                <time>2009-05-31T04:47:49Z</time>
            </trkpt>
            <trkpt lon="101.064297" lat="14.492662">
                <ele>112.130981</ele>
                <time>2009-05-31T04:48:08Z</time>
            </trkpt>
            <trkpt lon="101.064241" lat="14.492752">
                <ele>113.572998</ele>
                <time>2009-05-31T04:48:19Z</time>
            </trkpt>
            <trkpt lon="101.064088" lat="14.492716">
                <ele>114.534180</ele>
                <time>2009-05-31T04:48:36Z</time>
            </trkpt>
            <trkpt lon="101.064086" lat="14.492715">
                <ele>111.650269</ele>
                <time>2009-05-31T04:48:49Z</time>
            </trkpt>
            <trkpt lon="101.064092" lat="14.492781">
                <ele>114.053589</ele>
                <time>2009-05-31T04:49:50Z</time>
            </trkpt>
            <trkpt lon="101.063990" lat="14.492799">
                <ele>112.611572</ele>
                <time>2009-05-31T04:49:59Z</time>
            </trkpt>
            <trkpt lon="101.063653" lat="14.492836">
                <ele>105.401733</ele>
                <time>2009-05-31T04:50:08Z</time>
            </trkpt>
            <trkpt lon="101.063288" lat="14.492956">
                <ele>95.307739</ele>
                <time>2009-05-31T04:50:17Z</time>
            </trkpt>
            <trkpt lon="101.063132" lat="14.493006">
                <ele>93.385132</ele>
                <time>2009-05-31T04:50:20Z</time>
            </trkpt>
            <trkpt lon="101.062933" lat="14.492980">
                <ele>91.943237</ele>
                <time>2009-05-31T04:50:24Z</time>
            </trkpt>
            <trkpt lon="101.062771" lat="14.492864">
                <ele>92.904541</ele>
                <time>2009-05-31T04:50:28Z</time>
            </trkpt>
            <trkpt lon="101.062431" lat="14.492689">
                <ele>99.153076</ele>
                <time>2009-05-31T04:50:41Z</time>
            </trkpt>
            <trkpt lon="101.062095" lat="14.492724">
                <ele>98.191895</ele>
                <time>2009-05-31T04:50:53Z</time>
            </trkpt>
            <trkpt lon="101.061683" lat="14.492815">
                <ele>94.827148</ele>
                <time>2009-05-31T04:51:05Z</time>
            </trkpt>
            <trkpt lon="101.061439" lat="14.493015">
                <ele>97.711182</ele>
                <time>2009-05-31T04:51:16Z</time>
            </trkpt>
            <trkpt lon="101.061410" lat="14.493299">
                <ele>100.114502</ele>
                <time>2009-05-31T04:51:28Z</time>
            </trkpt>
            <trkpt lon="101.061419" lat="14.493373">
                <ele>100.595093</ele>
                <time>2009-05-31T04:51:32Z</time>
            </trkpt>
            <trkpt lon="101.061391" lat="14.493624">
                <ele>99.153076</ele>
                <time>2009-05-31T04:51:41Z</time>
            </trkpt>
            <trkpt lon="101.061217" lat="14.493844">
                <ele>99.153076</ele>
                <time>2009-05-31T04:51:50Z</time>
            </trkpt>
            <trkpt lon="101.061180" lat="14.493813">
                <ele>100.114502</ele>
                <time>2009-05-31T04:51:51Z</time>
            </trkpt>
            <trkpt lon="101.061093" lat="14.493746">
                <ele>100.114502</ele>
                <time>2009-05-31T04:51:53Z</time>
            </trkpt>
            <trkpt lon="101.060800" lat="14.493527">
                <ele>99.633789</ele>
                <time>2009-05-31T04:51:58Z</time>
            </trkpt>
            <trkpt lon="101.060588" lat="14.493443">
                <ele>99.153076</ele>
                <time>2009-05-31T04:52:02Z</time>
            </trkpt>
            <trkpt lon="101.060132" lat="14.493505">
                <ele>95.307739</ele>
                <time>2009-05-31T04:52:15Z</time>
            </trkpt>
            <trkpt lon="101.059740" lat="14.493529">
                <ele>103.479004</ele>
                <time>2009-05-31T04:52:28Z</time>
            </trkpt>
            <trkpt lon="101.059494" lat="14.493388">
                <ele>105.882446</ele>
                <time>2009-05-31T04:52:39Z</time>
            </trkpt>
            <trkpt lon="101.059377" lat="14.493136">
                <ele>102.517700</ele>
                <time>2009-05-31T04:52:48Z</time>
            </trkpt>
            <trkpt lon="101.059144" lat="14.493063">
                <ele>94.346558</ele>
                <time>2009-05-31T04:52:57Z</time>
            </trkpt>
            <trkpt lon="101.058842" lat="14.493034">
                <ele>83.291382</ele>
                <time>2009-05-31T04:53:08Z</time>
            </trkpt>
            <trkpt lon="101.058708" lat="14.492843">
                <ele>90.981934</ele>
                <time>2009-05-31T04:53:21Z</time>
            </trkpt>
            <trkpt lon="101.058640" lat="14.492835">
                <ele>88.578735</ele>
                <time>2009-05-31T04:53:33Z</time>
            </trkpt>
            <trkpt lon="101.058531" lat="14.492764">
                <ele>83.291382</ele>
                <time>2009-05-31T04:53:46Z</time>
            </trkpt>
            <trkpt lon="101.058389" lat="14.492695">
                <ele>78.004028</ele>
                <time>2009-05-31T04:53:57Z</time>
            </trkpt>
            <trkpt lon="101.058265" lat="14.492655">
                <ele>75.120239</ele>
                <time>2009-05-31T04:54:01Z</time>
            </trkpt>
            <trkpt lon="101.058084" lat="14.492612">
                <ele>72.716919</ele>
                <time>2009-05-31T04:54:05Z</time>
            </trkpt>
            <trkpt lon="101.057985" lat="14.492596">
                <ele>72.236206</ele>
                <time>2009-05-31T04:54:07Z</time>
            </trkpt>
            <trkpt lon="101.057427" lat="14.492569">
                <ele>68.871582</ele>
                <time>2009-05-31T04:54:20Z</time>
            </trkpt>
            <trkpt lon="101.057336" lat="14.492567">
                <ele>68.390869</ele>
                <time>2009-05-31T04:54:22Z</time>
            </trkpt>
            <trkpt lon="101.057170" lat="14.492496">
                <ele>66.948975</ele>
                <time>2009-05-31T04:54:27Z</time>
            </trkpt>
            <trkpt lon="101.057085" lat="14.492360">
                <ele>65.987671</ele>
                <time>2009-05-31T04:54:31Z</time>
            </trkpt>
            <trkpt lon="101.057051" lat="14.492124">
                <ele>66.468262</ele>
                <time>2009-05-31T04:54:43Z</time>
            </trkpt>
            <trkpt lon="101.057013" lat="14.491918">
                <ele>65.507080</ele>
                <time>2009-05-31T04:54:51Z</time>
            </trkpt>
            <trkpt lon="101.056699" lat="14.491756">
                <ele>63.103638</ele>
                <time>2009-05-31T04:55:00Z</time>
            </trkpt>
            <trkpt lon="101.056613" lat="14.491735">
                <ele>61.181030</ele>
                <time>2009-05-31T04:55:02Z</time>
            </trkpt>
            <trkpt lon="101.056407" lat="14.491582">
                <ele>61.181030</ele>
                <time>2009-05-31T04:55:08Z</time>
            </trkpt>
            <trkpt lon="101.056293" lat="14.491428">
                <ele>59.739136</ele>
                <time>2009-05-31T04:55:13Z</time>
            </trkpt>
            <trkpt lon="101.056242" lat="14.491325">
                <ele>60.219727</ele>
                <time>2009-05-31T04:55:17Z</time>
            </trkpt>
            <trkpt lon="101.056115" lat="14.491205">
                <ele>58.297119</ele>
                <time>2009-05-31T04:55:21Z</time>
            </trkpt>
            <trkpt lon="101.055904" lat="14.491116">
                <ele>54.932373</ele>
                <time>2009-05-31T04:55:26Z</time>
            </trkpt>
            <trkpt lon="101.055768" lat="14.491120">
                <ele>52.529175</ele>
                <time>2009-05-31T04:55:29Z</time>
            </trkpt>
            <trkpt lon="101.055574" lat="14.491175">
                <ele>50.606567</ele>
                <time>2009-05-31T04:55:33Z</time>
            </trkpt>
            <trkpt lon="101.055344" lat="14.491457">
                <ele>47.241821</ele>
                <time>2009-05-31T04:55:40Z</time>
            </trkpt>
            <trkpt lon="101.055319" lat="14.491575">
                <ele>46.280640</ele>
                <time>2009-05-31T04:55:43Z</time>
            </trkpt>
            <trkpt lon="101.055189" lat="14.491931">
                <ele>46.761231</ele>
                <time>2009-05-31T04:55:53Z</time>
            </trkpt>
            <trkpt lon="101.055135" lat="14.491943">
                <ele>46.280640</ele>
                <time>2009-05-31T04:55:54Z</time>
            </trkpt>
            <trkpt lon="101.054677" lat="14.491960">
                <ele>45.799927</ele>
                <time>2009-05-31T04:56:01Z</time>
            </trkpt>
            <trkpt lon="101.054655" lat="14.491786">
                <ele>47.722534</ele>
                <time>2009-05-31T04:56:06Z</time>
            </trkpt>
            <trkpt lon="101.054621" lat="14.491585">
                <ele>48.683960</ele>
                <time>2009-05-31T04:56:10Z</time>
            </trkpt>
            <trkpt lon="101.054354" lat="14.490608">
                <ele>46.280640</ele>
                <time>2009-05-31T04:56:26Z</time>
            </trkpt>
            <trkpt lon="101.054048" lat="14.489806">
                <ele>42.916016</ele>
                <time>2009-05-31T04:56:39Z</time>
            </trkpt>
            <trkpt lon="101.053760" lat="14.489726">
                <ele>41.473999</ele>
                <time>2009-05-31T04:56:44Z</time>
            </trkpt>
            <trkpt lon="101.053134" lat="14.489719">
                <ele>40.032105</ele>
                <time>2009-05-31T04:56:57Z</time>
            </trkpt>
            <trkpt lon="101.053068" lat="14.489365">
                <ele>40.032105</ele>
                <time>2009-05-31T04:57:06Z</time>
            </trkpt>
            <trkpt lon="101.053065" lat="14.489322">
                <ele>40.032105</ele>
                <time>2009-05-31T04:57:07Z</time>
            </trkpt>
            <trkpt lon="101.053051" lat="14.489024">
                <ele>40.993408</ele>
                <time>2009-05-31T04:57:14Z</time>
            </trkpt>
            <trkpt lon="101.053010" lat="14.488515">
                <ele>42.916016</ele>
                <time>2009-05-31T04:57:27Z</time>
            </trkpt>
            <trkpt lon="101.053160" lat="14.488511">
                <ele>43.396606</ele>
                <time>2009-05-31T04:57:33Z</time>
            </trkpt>
            <trkpt lon="101.053635" lat="14.488533">
                <ele>43.877319</ele>
                <time>2009-05-31T04:57:45Z</time>
            </trkpt>
            <trkpt lon="101.054134" lat="14.488383">
                <ele>42.916016</ele>
                <time>2009-05-31T04:58:00Z</time>
            </trkpt>
            <trkpt lon="101.054162" lat="14.488356">
                <ele>42.916016</ele>
                <time>2009-05-31T04:58:01Z</time>
            </trkpt>
            <trkpt lon="101.054424" lat="14.488201">
                <ele>41.473999</ele>
                <time>2009-05-31T04:58:07Z</time>
            </trkpt>
            <trkpt lon="101.054792" lat="14.488048">
                <ele>40.993408</ele>
                <time>2009-05-31T04:58:17Z</time>
            </trkpt>
            <trkpt lon="101.055076" lat="14.487721">
                <ele>40.993408</ele>
                <time>2009-05-31T04:58:30Z</time>
            </trkpt>
            <trkpt lon="101.055334" lat="14.487451">
                <ele>43.877319</ele>
                <time>2009-05-31T04:58:45Z</time>
            </trkpt>
            <trkpt lon="101.055289" lat="14.487083">
                <ele>44.838623</ele>
                <time>2009-05-31T04:58:58Z</time>
            </trkpt>
            <trkpt lon="101.055174" lat="14.486429">
                <ele>48.683960</ele>
                <time>2009-05-31T04:59:17Z</time>
            </trkpt>
            <trkpt lon="101.055172" lat="14.486373">
                <ele>48.683960</ele>
                <time>2009-05-31T04:59:19Z</time>
            </trkpt>
            <trkpt lon="101.055295" lat="14.486289">
                <ele>47.241821</ele>
                <time>2009-05-31T04:59:24Z</time>
            </trkpt>
            <trkpt lon="101.055795" lat="14.486176">
                <ele>46.761231</ele>
                <time>2009-05-31T04:59:39Z</time>
            </trkpt>
            <trkpt lon="101.055886" lat="14.486144">
                <ele>47.241821</ele>
                <time>2009-05-31T04:59:42Z</time>
            </trkpt>
            <trkpt lon="101.055877" lat="14.485926">
                <ele>47.241821</ele>
                <time>2009-05-31T04:59:49Z</time>
            </trkpt>
            <trkpt lon="101.055728" lat="14.485490">
                <ele>46.761231</ele>
                <time>2009-05-31T05:00:03Z</time>
            </trkpt>
            <trkpt lon="101.055682" lat="14.485339">
                <ele>47.722534</ele>
                <time>2009-05-31T05:00:09Z</time>
            </trkpt>
            <trkpt lon="101.055682" lat="14.485299">
                <ele>47.722534</ele>
                <time>2009-05-31T05:00:11Z</time>
            </trkpt>
            <trkpt lon="101.055554" lat="14.485065">
                <ele>48.683960</ele>
                <time>2009-05-31T05:00:22Z</time>
            </trkpt>
            <trkpt lon="101.055375" lat="14.485131">
                <ele>47.722534</ele>
                <time>2009-05-31T05:00:28Z</time>
            </trkpt>
            <trkpt lon="101.055007" lat="14.485355">
                <ele>44.838623</ele>
                <time>2009-05-31T05:00:41Z</time>
            </trkpt>
            <trkpt lon="101.054610" lat="14.485486">
                <ele>45.799927</ele>
                <time>2009-05-31T05:00:52Z</time>
            </trkpt>
            <trkpt lon="101.054552" lat="14.485440">
                <ele>46.280640</ele>
                <time>2009-05-31T05:00:53Z</time>
            </trkpt>
            <trkpt lon="101.054243" lat="14.485511">
                <ele>47.241821</ele>
                <time>2009-05-31T05:01:00Z</time>
            </trkpt>
            <trkpt lon="101.053616" lat="14.485560">
                <ele>48.683960</ele>
                <time>2009-05-31T05:01:13Z</time>
            </trkpt>
            <trkpt lon="101.053472" lat="14.485560">
                <ele>48.683960</ele>
                <time>2009-05-31T05:01:16Z</time>
            </trkpt>
            <trkpt lon="101.053171" lat="14.485496">
                <ele>49.164551</ele>
                <time>2009-05-31T05:01:26Z</time>
            </trkpt>
            <trkpt lon="101.053019" lat="14.485431">
                <ele>49.645264</ele>
                <time>2009-05-31T05:01:32Z</time>
            </trkpt>
            <trkpt lon="101.052728" lat="14.485294">
                <ele>49.164551</ele>
                <time>2009-05-31T05:01:40Z</time>
            </trkpt>
            <trkpt lon="101.052627" lat="14.485246">
                <ele>48.683960</ele>
                <time>2009-05-31T05:01:45Z</time>
            </trkpt>
            <trkpt lon="101.052341" lat="14.485112">
                <ele>46.761231</ele>
                <time>2009-05-31T05:01:53Z</time>
            </trkpt>
            <trkpt lon="101.051394" lat="14.485705">
                <ele>42.916016</ele>
                <time>2009-05-31T05:02:07Z</time>
            </trkpt>
            <trkpt lon="101.051230" lat="14.485858">
                <ele>41.473999</ele>
                <time>2009-05-31T05:02:16Z</time>
            </trkpt>
            <trkpt lon="101.051226" lat="14.485891">
                <ele>41.473999</ele>
                <time>2009-05-31T05:02:18Z</time>
            </trkpt>
            <trkpt lon="101.051150" lat="14.485877">
                <ele>42.435425</ele>
                <time>2009-05-31T05:02:25Z</time>
            </trkpt>
            <trkpt lon="101.050960" lat="14.485601">
                <ele>42.916016</ele>
                <time>2009-05-31T05:02:35Z</time>
            </trkpt>
            <trkpt lon="101.050841" lat="14.485462">
                <ele>42.435425</ele>
                <time>2009-05-31T05:02:39Z</time>
            </trkpt>
            <trkpt lon="101.050547" lat="14.485065">
                <ele>41.954712</ele>
                <time>2009-05-31T05:02:49Z</time>
            </trkpt>
            <trkpt lon="101.050422" lat="14.484590">
                <ele>40.993408</ele>
                <time>2009-05-31T05:02:58Z</time>
            </trkpt>
            <trkpt lon="101.050426" lat="14.484483">
                <ele>40.512817</ele>
                <time>2009-05-31T05:03:00Z</time>
            </trkpt>
            <trkpt lon="101.050438" lat="14.484131">
                <ele>40.512817</ele>
                <time>2009-05-31T05:03:08Z</time>
            </trkpt>
            <trkpt lon="101.050332" lat="14.483724">
                <ele>40.032105</ele>
                <time>2009-05-31T05:03:18Z</time>
            </trkpt>
            <trkpt lon="101.050198" lat="14.483553">
                <ele>40.032105</ele>
                <time>2009-05-31T05:03:27Z</time>
            </trkpt>
            <trkpt lon="101.050194" lat="14.483556">
                <ele>40.032105</ele>
                <time>2009-05-31T05:03:37Z</time>
            </trkpt>
            <trkpt lon="101.050156" lat="14.483558">
                <ele>40.032105</ele>
                <time>2009-05-31T05:03:40Z</time>
            </trkpt>
            <trkpt lon="101.050057" lat="14.483518">
                <ele>40.032105</ele>
                <time>2009-05-31T05:03:44Z</time>
            </trkpt>
            <trkpt lon="101.049995" lat="14.483505">
                <ele>39.070679</ele>
                <time>2009-05-31T05:03:46Z</time>
            </trkpt>
            <trkpt lon="101.049865" lat="14.483369">
                <ele>38.590088</ele>
                <time>2009-05-31T05:03:51Z</time>
            </trkpt>
            <trkpt lon="101.050151" lat="14.483394">
                <ele>38.590088</ele>
                <time>2009-05-31T05:04:02Z</time>
            </trkpt>
            <trkpt lon="101.050168" lat="14.483383">
                <ele>38.109375</ele>
                <time>2009-05-31T05:04:03Z</time>
            </trkpt>
            <trkpt lon="101.049805" lat="14.482859">
                <ele>38.109375</ele>
                <time>2009-05-31T05:04:07Z</time>
            </trkpt>
            <trkpt lon="101.049666" lat="14.482748">
                <ele>37.148071</ele>
                <time>2009-05-31T05:04:11Z</time>
            </trkpt>
            <trkpt lon="101.049649" lat="14.482635">
                <ele>37.628662</ele>
                <time>2009-05-31T05:04:15Z</time>
            </trkpt>
            <trkpt lon="101.049661" lat="14.482523">
                <ele>36.667481</ele>
                <time>2009-05-31T05:04:18Z</time>
            </trkpt>
            <trkpt lon="101.049626" lat="14.482362">
                <ele>37.628662</ele>
                <time>2009-05-31T05:04:22Z</time>
            </trkpt>
            <trkpt lon="101.049445" lat="14.481870">
                <ele>38.590088</ele>
                <time>2009-05-31T05:04:36Z</time>
            </trkpt>
            <trkpt lon="101.049351" lat="14.481526">
                <ele>38.109375</ele>
                <time>2009-05-31T05:04:51Z</time>
            </trkpt>
            <trkpt lon="101.049347" lat="14.481504">
                <ele>38.109375</ele>
                <time>2009-05-31T05:04:52Z</time>
            </trkpt>
            <trkpt lon="101.049331" lat="14.481337">
                <ele>37.628662</ele>
                <time>2009-05-31T05:05:01Z</time>
            </trkpt>
            <trkpt lon="101.049204" lat="14.481055">
                <ele>38.590088</ele>
                <time>2009-05-31T05:05:15Z</time>
            </trkpt>
            <trkpt lon="101.049189" lat="14.481037">
                <ele>38.590088</ele>
                <time>2009-05-31T05:05:18Z</time>
            </trkpt>
            <trkpt lon="101.049151" lat="14.480982">
                <ele>37.628662</ele>
                <time>2009-05-31T05:05:27Z</time>
            </trkpt>
            <trkpt lon="101.049108" lat="14.480830">
                <ele>37.148071</ele>
                <time>2009-05-31T05:05:43Z</time>
            </trkpt>
            <trkpt lon="101.049076" lat="14.480723">
                <ele>36.667481</ele>
                <time>2009-05-31T05:05:57Z</time>
            </trkpt>
            <trkpt lon="101.049031" lat="14.480712">
                <ele>36.186768</ele>
                <time>2009-05-31T05:06:02Z</time>
            </trkpt>
            <trkpt lon="101.048982" lat="14.480722">
                <ele>35.225464</ele>
                <time>2009-05-31T05:06:06Z</time>
            </trkpt>
            <trkpt lon="101.048930" lat="14.480727">
                <ele>34.264160</ele>
                <time>2009-05-31T05:06:12Z</time>
            </trkpt>
            <trkpt lon="101.048784" lat="14.480608">
                <ele>35.706055</ele>
                <time>2009-05-31T05:06:25Z</time>
            </trkpt>
            <trkpt lon="101.048734" lat="14.480573">
                <ele>35.706055</ele>
                <time>2009-05-31T05:06:33Z</time>
            </trkpt>
            <trkpt lon="101.048650" lat="14.480446">
                <ele>36.186768</ele>
                <time>2009-05-31T05:06:47Z</time>
            </trkpt>
            <trkpt lon="101.048626" lat="14.480450">
                <ele>36.667481</ele>
                <time>2009-05-31T05:06:52Z</time>
            </trkpt>
            <trkpt lon="101.048550" lat="14.480518">
                <ele>36.186768</ele>
                <time>2009-05-31T05:06:59Z</time>
            </trkpt>
            <trkpt lon="101.048388" lat="14.480691">
                <ele>37.628662</ele>
                <time>2009-05-31T05:07:08Z</time>
            </trkpt>
            <trkpt lon="101.048169" lat="14.480604">
                <ele>36.667481</ele>
                <time>2009-05-31T05:07:15Z</time>
            </trkpt>
            <trkpt lon="101.048206" lat="14.480486">
                <ele>37.628662</ele>
                <time>2009-05-31T05:07:19Z</time>
            </trkpt>
            <trkpt lon="101.048290" lat="14.480406">
                <ele>36.667481</ele>
                <time>2009-05-31T05:07:22Z</time>
            </trkpt>
            <trkpt lon="101.048700" lat="14.480002">
                <ele>36.186768</ele>
                <time>2009-05-31T05:07:37Z</time>
            </trkpt>
            <trkpt lon="101.048972" lat="14.479698">
                <ele>35.706055</ele>
                <time>2009-05-31T05:07:49Z</time>
            </trkpt>
            <trkpt lon="101.049175" lat="14.479497">
                <ele>35.225464</ele>
                <time>2009-05-31T05:07:58Z</time>
            </trkpt>
            <trkpt lon="101.049382" lat="14.479027">
                <ele>34.264160</ele>
                <time>2009-05-31T05:08:11Z</time>
            </trkpt>
            <trkpt lon="101.049320" lat="14.478582">
                <ele>36.667481</ele>
                <time>2009-05-31T05:08:23Z</time>
            </trkpt>
            <trkpt lon="101.049211" lat="14.478339">
                <ele>37.148071</ele>
                <time>2009-05-31T05:08:29Z</time>
            </trkpt>
            <trkpt lon="101.048975" lat="14.477717">
                <ele>37.148071</ele>
                <time>2009-05-31T05:08:44Z</time>
            </trkpt>
            <trkpt lon="101.048730" lat="14.477067">
                <ele>37.628662</ele>
                <time>2009-05-31T05:09:01Z</time>
            </trkpt>
            <trkpt lon="101.048469" lat="14.476392">
                <ele>37.628662</ele>
                <time>2009-05-31T05:09:21Z</time>
            </trkpt>
            <trkpt lon="101.048247" lat="14.475779">
                <ele>38.109375</ele>
                <time>2009-05-31T05:09:40Z</time>
            </trkpt>
            <trkpt lon="101.048180" lat="14.475581">
                <ele>38.590088</ele>
                <time>2009-05-31T05:09:46Z</time>
            </trkpt>
            <trkpt lon="101.048255" lat="14.475512">
                <ele>38.109375</ele>
                <time>2009-05-31T05:09:50Z</time>
            </trkpt>
            <trkpt lon="101.048740" lat="14.475363">
                <ele>37.148071</ele>
                <time>2009-05-31T05:10:04Z</time>
            </trkpt>
            <trkpt lon="101.049214" lat="14.475231">
                <ele>37.148071</ele>
                <time>2009-05-31T05:10:18Z</time>
            </trkpt>
            <trkpt lon="101.049464" lat="14.475131">
                <ele>37.148071</ele>
                <time>2009-05-31T05:10:31Z</time>
            </trkpt>
            <trkpt lon="101.049454" lat="14.475095">
                <ele>37.148071</ele>
                <time>2009-05-31T05:10:39Z</time>
            </trkpt>
            <trkpt lon="101.049403" lat="14.474935">
                <ele>38.109375</ele>
                <time>2009-05-31T05:10:53Z</time>
            </trkpt>
            <trkpt lon="101.049351" lat="14.474768">
                <ele>38.590088</ele>
                <time>2009-05-31T05:11:10Z</time>
            </trkpt>
            <trkpt lon="101.049302" lat="14.474622">
                <ele>38.109375</ele>
                <time>2009-05-31T05:11:23Z</time>
            </trkpt>
            <trkpt lon="101.049298" lat="14.474604">
                <ele>38.109375</ele>
                <time>2009-05-31T05:11:25Z</time>
            </trkpt>
            <trkpt lon="101.049214" lat="14.474379">
                <ele>37.628662</ele>
                <time>2009-05-31T05:11:43Z</time>
            </trkpt>
            <trkpt lon="101.049204" lat="14.474331">
                <ele>38.109375</ele>
                <time>2009-05-31T05:11:47Z</time>
            </trkpt>
            <trkpt lon="101.049208" lat="14.474305">
                <ele>37.628662</ele>
                <time>2009-05-31T05:11:52Z</time>
            </trkpt>
            <trkpt lon="101.049196" lat="14.474253">
                <ele>37.628662</ele>
                <time>2009-05-31T05:11:56Z</time>
            </trkpt>
            <trkpt lon="101.049166" lat="14.474089">
                <ele>37.148071</ele>
                <time>2009-05-31T05:12:07Z</time>
            </trkpt>
            <trkpt lon="101.049126" lat="14.474015">
                <ele>37.628662</ele>
                <time>2009-05-31T05:12:13Z</time>
            </trkpt>
            <trkpt lon="101.049081" lat="14.473885">
                <ele>38.109375</ele>
                <time>2009-05-31T05:12:21Z</time>
            </trkpt>
            <trkpt lon="101.049124" lat="14.473812">
                <ele>37.628662</ele>
                <time>2009-05-31T05:12:27Z</time>
            </trkpt>
            <trkpt lon="101.049053" lat="14.473680">
                <ele>37.628662</ele>
                <time>2009-05-31T05:12:36Z</time>
            </trkpt>
            <trkpt lon="101.048910" lat="14.473441">
                <ele>37.628662</ele>
                <time>2009-05-31T05:12:51Z</time>
            </trkpt>
            <trkpt lon="101.048889" lat="14.473428">
                <ele>37.148071</ele>
                <time>2009-05-31T05:12:55Z</time>
            </trkpt>
            <trkpt lon="101.048860" lat="14.473410">
                <ele>37.628662</ele>
                <time>2009-05-31T05:12:59Z</time>
            </trkpt>
            <trkpt lon="101.048846" lat="14.473363">
                <ele>37.628662</ele>
                <time>2009-05-31T05:13:04Z</time>
            </trkpt>
            <trkpt lon="101.048803" lat="14.473181">
                <ele>38.109375</ele>
                <time>2009-05-31T05:13:18Z</time>
            </trkpt>
            <trkpt lon="101.048781" lat="14.473072">
                <ele>37.148071</ele>
                <time>2009-05-31T05:13:31Z</time>
            </trkpt>
            <trkpt lon="101.048792" lat="14.473010">
                <ele>36.667481</ele>
                <time>2009-05-31T05:13:40Z</time>
            </trkpt>
            <trkpt lon="101.048825" lat="14.472797">
                <ele>37.148071</ele>
                <time>2009-05-31T05:13:57Z</time>
            </trkpt>
            <trkpt lon="101.048858" lat="14.472610">
                <ele>37.628662</ele>
                <time>2009-05-31T05:14:13Z</time>
            </trkpt>
            <trkpt lon="101.048825" lat="14.472575">
                <ele>37.628662</ele>
                <time>2009-05-31T05:14:17Z</time>
            </trkpt>
            <trkpt lon="101.048789" lat="14.472402">
                <ele>38.590088</ele>
                <time>2009-05-31T05:14:31Z</time>
            </trkpt>
            <trkpt lon="101.048696" lat="14.472164">
                <ele>39.070679</ele>
                <time>2009-05-31T05:14:45Z</time>
            </trkpt>
            <trkpt lon="101.048653" lat="14.471819">
                <ele>39.070679</ele>
                <time>2009-05-31T05:14:57Z</time>
            </trkpt>
            <trkpt lon="101.048613" lat="14.471691">
                <ele>38.590088</ele>
                <time>2009-05-31T05:15:01Z</time>
            </trkpt>
            <trkpt lon="101.048555" lat="14.471312">
                <ele>39.070679</ele>
                <time>2009-05-31T05:15:10Z</time>
            </trkpt>
            <trkpt lon="101.048406" lat="14.471334">
                <ele>37.628662</ele>
                <time>2009-05-31T05:15:16Z</time>
            </trkpt>
            <trkpt lon="101.048208" lat="14.471402">
                <ele>36.667481</ele>
                <time>2009-05-31T05:15:20Z</time>
            </trkpt>
            <trkpt lon="101.047158" lat="14.471768">
                <ele>35.225464</ele>
                <time>2009-05-31T05:15:39Z</time>
            </trkpt>
            <trkpt lon="101.046085" lat="14.472176">
                <ele>33.783447</ele>
                <time>2009-05-31T05:15:57Z</time>
            </trkpt>
            <trkpt lon="101.045678" lat="14.472352">
                <ele>33.783447</ele>
                <time>2009-05-31T05:16:04Z</time>
            </trkpt>
            <trkpt lon="101.044908" lat="14.472685">
                <ele>35.225464</ele>
                <time>2009-05-31T05:16:19Z</time>
            </trkpt>
            <trkpt lon="101.043775" lat="14.472980">
                <ele>34.744873</ele>
                <time>2009-05-31T05:16:34Z</time>
            </trkpt>
            <trkpt lon="101.043711" lat="14.473006">
                <ele>34.744873</ele>
                <time>2009-05-31T05:16:35Z</time>
            </trkpt>
            <trkpt lon="101.043579" lat="14.473045">
                <ele>34.744873</ele>
                <time>2009-05-31T05:16:37Z</time>
            </trkpt>
            <trkpt lon="101.043448" lat="14.473095">
                <ele>34.744873</ele>
                <time>2009-05-31T05:16:39Z</time>
            </trkpt>
            <trkpt lon="101.042374" lat="14.473266">
                <ele>34.264160</ele>
                <time>2009-05-31T05:16:54Z</time>
            </trkpt>
            <trkpt lon="101.041244" lat="14.473204">
                <ele>34.264160</ele>
                <time>2009-05-31T05:17:10Z</time>
            </trkpt>
            <trkpt lon="101.041040" lat="14.473195">
                <ele>33.302856</ele>
                <time>2009-05-31T05:17:13Z</time>
            </trkpt>
            <trkpt lon="101.040771" lat="14.473226">
                <ele>32.822266</ele>
                <time>2009-05-31T05:17:17Z</time>
            </trkpt>
            <trkpt lon="101.039552" lat="14.473558">
                <ele>32.822266</ele>
                <time>2009-05-31T05:17:35Z</time>
            </trkpt>
            <trkpt lon="101.039308" lat="14.473617">
                <ele>32.822266</ele>
                <time>2009-05-31T05:17:39Z</time>
            </trkpt>
            <trkpt lon="101.039116" lat="14.473719">
                <ele>32.341553</ele>
                <time>2009-05-31T05:17:43Z</time>
            </trkpt>
            <trkpt lon="101.038904" lat="14.473629">
                <ele>31.860718</ele>
                <time>2009-05-31T05:17:48Z</time>
            </trkpt>
            <trkpt lon="101.038523" lat="14.472589">
                <ele>34.264160</ele>
                <time>2009-05-31T05:18:07Z</time>
            </trkpt>
            <trkpt lon="101.038513" lat="14.472478">
                <ele>34.744873</ele>
                <time>2009-05-31T05:18:09Z</time>
            </trkpt>
            <trkpt lon="101.038590" lat="14.471584">
                <ele>38.590088</ele>
                <time>2009-05-31T05:18:25Z</time>
            </trkpt>
            <trkpt lon="101.038599" lat="14.471348">
                <ele>38.590088</ele>
                <time>2009-05-31T05:18:30Z</time>
            </trkpt>
            <trkpt lon="101.038583" lat="14.470895">
                <ele>37.148071</ele>
                <time>2009-05-31T05:18:42Z</time>
            </trkpt>
            <trkpt lon="101.038452" lat="14.470788">
                <ele>36.186768</ele>
                <time>2009-05-31T05:18:46Z</time>
            </trkpt>
            <trkpt lon="101.037941" lat="14.470748">
                <ele>33.783447</ele>
                <time>2009-05-31T05:19:00Z</time>
            </trkpt>
            <trkpt lon="101.037777" lat="14.470648">
                <ele>33.783447</ele>
                <time>2009-05-31T05:19:04Z</time>
            </trkpt>
            <trkpt lon="101.037467" lat="14.470343">
                <ele>34.744873</ele>
                <time>2009-05-31T05:19:15Z</time>
            </trkpt>
            <trkpt lon="101.037487" lat="14.470168">
                <ele>35.225464</ele>
                <time>2009-05-31T05:19:21Z</time>
            </trkpt>
            <trkpt lon="101.037211" lat="14.469974">
                <ele>34.744873</ele>
                <time>2009-05-31T05:19:31Z</time>
            </trkpt>
            <trkpt lon="101.037034" lat="14.469845">
                <ele>34.744873</ele>
                <time>2009-05-31T05:19:36Z</time>
            </trkpt>
            <trkpt lon="101.036775" lat="14.469787">
                <ele>33.302856</ele>
                <time>2009-05-31T05:19:42Z</time>
            </trkpt>
            <trkpt lon="101.036577" lat="14.469831">
                <ele>31.380127</ele>
                <time>2009-05-31T05:19:46Z</time>
            </trkpt>
            <trkpt lon="101.036074" lat="14.469857">
                <ele>29.457520</ele>
                <time>2009-05-31T05:19:56Z</time>
            </trkpt>
            <trkpt lon="101.035910" lat="14.469858">
                <ele>28.976929</ele>
                <time>2009-05-31T05:19:59Z</time>
            </trkpt>
            <trkpt lon="101.035717" lat="14.469894">
                <ele>28.496216</ele>
                <time>2009-05-31T05:20:03Z</time>
            </trkpt>
            <trkpt lon="101.035488" lat="14.470067">
                <ele>30.418823</ele>
                <time>2009-05-31T05:20:10Z</time>
            </trkpt>
            <trkpt lon="101.035356" lat="14.469909">
                <ele>31.860718</ele>
                <time>2009-05-31T05:20:17Z</time>
            </trkpt>
            <trkpt lon="101.035343" lat="14.469869">
                <ele>31.860718</ele>
                <time>2009-05-31T05:20:18Z</time>
            </trkpt>
            <trkpt lon="101.035159" lat="14.469453">
                <ele>33.783447</ele>
                <time>2009-05-31T05:20:27Z</time>
            </trkpt>
            <trkpt lon="101.034921" lat="14.468809">
                <ele>35.706055</ele>
                <time>2009-05-31T05:20:39Z</time>
            </trkpt>
            <trkpt lon="101.034757" lat="14.468060">
                <ele>36.667481</ele>
                <time>2009-05-31T05:20:53Z</time>
            </trkpt>
            <trkpt lon="101.035002" lat="14.467434">
                <ele>37.148071</ele>
                <time>2009-05-31T05:21:06Z</time>
            </trkpt>
            <trkpt lon="101.035604" lat="14.466302">
                <ele>37.628662</ele>
                <time>2009-05-31T05:21:29Z</time>
            </trkpt>
            <trkpt lon="101.035703" lat="14.466114">
                <ele>37.628662</ele>
                <time>2009-05-31T05:21:33Z</time>
            </trkpt>
            <trkpt lon="101.035690" lat="14.465864">
                <ele>38.590088</ele>
                <time>2009-05-31T05:21:38Z</time>
            </trkpt>
            <trkpt lon="101.035665" lat="14.465712">
                <ele>39.070679</ele>
                <time>2009-05-31T05:21:41Z</time>
            </trkpt>
            <trkpt lon="101.035458" lat="14.464547">
                <ele>40.032105</ele>
                <time>2009-05-31T05:22:02Z</time>
            </trkpt>
            <trkpt lon="101.035189" lat="14.463245">
                <ele>40.032105</ele>
                <time>2009-05-31T05:22:25Z</time>
            </trkpt>
            <trkpt lon="101.034951" lat="14.461998">
                <ele>40.512817</ele>
                <time>2009-05-31T05:22:47Z</time>
            </trkpt>
            <trkpt lon="101.034913" lat="14.460724">
                <ele>41.473999</ele>
                <time>2009-05-31T05:23:09Z</time>
            </trkpt>
            <trkpt lon="101.034908" lat="14.459860">
                <ele>42.435425</ele>
                <time>2009-05-31T05:23:25Z</time>
            </trkpt>
            <trkpt lon="101.035081" lat="14.459699">
                <ele>41.954712</ele>
                <time>2009-05-31T05:23:31Z</time>
            </trkpt>
            <trkpt lon="101.036266" lat="14.459538">
                <ele>40.512817</ele>
                <time>2009-05-31T05:23:52Z</time>
            </trkpt>
            <trkpt lon="101.037446" lat="14.459345">
                <ele>40.512817</ele>
                <time>2009-05-31T05:24:14Z</time>
            </trkpt>
            <trkpt lon="101.038367" lat="14.459118">
                <ele>41.954712</ele>
                <time>2009-05-31T05:24:32Z</time>
            </trkpt>
            <trkpt lon="101.039281" lat="14.458754">
                <ele>43.396606</ele>
                <time>2009-05-31T05:24:51Z</time>
            </trkpt>
            <trkpt lon="101.040200" lat="14.458369">
                <ele>42.916016</ele>
                <time>2009-05-31T05:25:10Z</time>
            </trkpt>
            <trkpt lon="101.041216" lat="14.457978">
                <ele>43.396606</ele>
                <time>2009-05-31T05:25:28Z</time>
            </trkpt>
            <trkpt lon="101.042388" lat="14.457365">
                <ele>43.396606</ele>
                <time>2009-05-31T05:25:48Z</time>
            </trkpt>
            <trkpt lon="101.043811" lat="14.456755">
                <ele>43.396606</ele>
                <time>2009-05-31T05:26:11Z</time>
            </trkpt>
            <trkpt lon="101.045095" lat="14.456205">
                <ele>42.916016</ele>
                <time>2009-05-31T05:26:32Z</time>
            </trkpt>
            <trkpt lon="101.045425" lat="14.456063">
                <ele>42.916016</ele>
                <time>2009-05-31T05:26:39Z</time>
            </trkpt>
            <trkpt lon="101.045594" lat="14.455991">
                <ele>42.435425</ele>
                <time>2009-05-31T05:26:44Z</time>
            </trkpt>
            <trkpt lon="101.045594" lat="14.455991">
                <ele>40.993408</ele>
                <time>2009-05-31T05:26:57Z</time>
            </trkpt>
            <trkpt lon="101.045594" lat="14.455991">
                <ele>42.435425</ele>
                <time>2009-05-31T05:27:20Z</time>
            </trkpt>
            <trkpt lon="101.045594" lat="14.455991">
                <ele>41.473999</ele>
                <time>2009-05-31T05:27:29Z</time>
            </trkpt>
            <trkpt lon="101.045594" lat="14.455991">
                <ele>41.954712</ele>
                <time>2009-05-31T05:27:33Z</time>
            </trkpt>
            <trkpt lon="101.045876" lat="14.455850">
                <ele>41.954712</ele>
                <time>2009-05-31T05:27:46Z</time>
            </trkpt>
            <trkpt lon="101.046081" lat="14.455747">
                <ele>41.954712</ele>
                <time>2009-05-31T05:27:51Z</time>
            </trkpt>
            <trkpt lon="101.046273" lat="14.455516">
                <ele>42.435425</ele>
                <time>2009-05-31T05:27:57Z</time>
            </trkpt>
            <trkpt lon="101.046461" lat="14.455097">
                <ele>45.799927</ele>
                <time>2009-05-31T05:28:06Z</time>
            </trkpt>
            <trkpt lon="101.046863" lat="14.454226">
                <ele>47.241821</ele>
                <time>2009-05-31T05:28:26Z</time>
            </trkpt>
            <trkpt lon="101.047338" lat="14.453342">
                <ele>48.683960</ele>
                <time>2009-05-31T05:28:47Z</time>
            </trkpt>
            <trkpt lon="101.047896" lat="14.452497">
                <ele>49.645264</ele>
                <time>2009-05-31T05:29:07Z</time>
            </trkpt>
            <trkpt lon="101.048494" lat="14.451597">
                <ele>50.125977</ele>
                <time>2009-05-31T05:29:26Z</time>
            </trkpt>
            <trkpt lon="101.048730" lat="14.451217">
                <ele>50.606567</ele>
                <time>2009-05-31T05:29:34Z</time>
            </trkpt>
            <trkpt lon="101.049002" lat="14.450779">
                <ele>50.606567</ele>
                <time>2009-05-31T05:29:43Z</time>
            </trkpt>
            <trkpt lon="101.049353" lat="14.450250">
                <ele>51.567871</ele>
                <time>2009-05-31T05:29:54Z</time>
            </trkpt>
            <trkpt lon="101.049882" lat="14.449467">
                <ele>53.009766</ele>
                <time>2009-05-31T05:30:11Z</time>
            </trkpt>
            <trkpt lon="101.050061" lat="14.449203">
                <ele>53.490479</ele>
                <time>2009-05-31T05:30:17Z</time>
            </trkpt>
            <trkpt lon="101.050427" lat="14.449122">
                <ele>53.971191</ele>
                <time>2009-05-31T05:30:27Z</time>
            </trkpt>
            <trkpt lon="101.050948" lat="14.449570">
                <ele>52.048584</ele>
                <time>2009-05-31T05:30:41Z</time>
            </trkpt>
            <trkpt lon="101.051772" lat="14.450278">
                <ele>50.606567</ele>
                <time>2009-05-31T05:31:00Z</time>
            </trkpt>
            <trkpt lon="101.052922" lat="14.451267">
                <ele>49.645264</ele>
                <time>2009-05-31T05:31:23Z</time>
            </trkpt>
            <trkpt lon="101.052974" lat="14.451311">
                <ele>50.125977</ele>
                <time>2009-05-31T05:31:24Z</time>
            </trkpt>
            <trkpt lon="101.053380" lat="14.451378">
                <ele>51.087158</ele>
                <time>2009-05-31T05:31:30Z</time>
            </trkpt>
            <trkpt lon="101.054090" lat="14.450875">
                <ele>52.529175</ele>
                <time>2009-05-31T05:31:42Z</time>
            </trkpt>
            <trkpt lon="101.054298" lat="14.450557">
                <ele>53.009766</ele>
                <time>2009-05-31T05:31:47Z</time>
            </trkpt>
            <trkpt lon="101.054511" lat="14.449425">
                <ele>54.451782</ele>
                <time>2009-05-31T05:32:02Z</time>
            </trkpt>
            <trkpt lon="101.054530" lat="14.449268">
                <ele>54.451782</ele>
                <time>2009-05-31T05:32:04Z</time>
            </trkpt>
            <trkpt lon="101.055040" lat="14.448519">
                <ele>53.971191</ele>
                <time>2009-05-31T05:32:16Z</time>
            </trkpt>
            <trkpt lon="101.055227" lat="14.448392">
                <ele>53.490479</ele>
                <time>2009-05-31T05:32:19Z</time>
            </trkpt>
            <trkpt lon="101.055674" lat="14.448293">
                <ele>53.009766</ele>
                <time>2009-05-31T05:32:25Z</time>
            </trkpt>
            <trkpt lon="101.055917" lat="14.448271">
                <ele>52.529175</ele>
                <time>2009-05-31T05:32:28Z</time>
            </trkpt>
            <trkpt lon="101.057071" lat="14.448146">
                <ele>53.490479</ele>
                <time>2009-05-31T05:32:43Z</time>
            </trkpt>
            <trkpt lon="101.057283" lat="14.448107">
                <ele>53.490479</ele>
                <time>2009-05-31T05:32:46Z</time>
            </trkpt>
            <trkpt lon="101.057384" lat="14.447788">
                <ele>52.529175</ele>
                <time>2009-05-31T05:32:53Z</time>
            </trkpt>
            <trkpt lon="101.056985" lat="14.447046">
                <ele>54.451782</ele>
                <time>2009-05-31T05:33:06Z</time>
            </trkpt>
            <trkpt lon="101.056781" lat="14.446724">
                <ele>55.413086</ele>
                <time>2009-05-31T05:33:12Z</time>
            </trkpt>
            <trkpt lon="101.056496" lat="14.446544">
                <ele>54.451782</ele>
                <time>2009-05-31T05:33:17Z</time>
            </trkpt>
            <trkpt lon="101.056006" lat="14.446479">
                <ele>50.606567</ele>
                <time>2009-05-31T05:33:24Z</time>
            </trkpt>
            <trkpt lon="101.055738" lat="14.446536">
                <ele>47.722534</ele>
                <time>2009-05-31T05:33:28Z</time>
            </trkpt>
            <trkpt lon="101.055315" lat="14.446320">
                <ele>46.280640</ele>
                <time>2009-05-31T05:33:37Z</time>
            </trkpt>
            <trkpt lon="101.055248" lat="14.446199">
                <ele>46.280640</ele>
                <time>2009-05-31T05:33:39Z</time>
            </trkpt>
            <trkpt lon="101.055078" lat="14.446017">
                <ele>45.799927</ele>
                <time>2009-05-31T05:33:43Z</time>
            </trkpt>
            <trkpt lon="101.054933" lat="14.445916">
                <ele>45.799927</ele>
                <time>2009-05-31T05:33:46Z</time>
            </trkpt>
            <trkpt lon="101.054761" lat="14.445947">
                <ele>45.319214</ele>
                <time>2009-05-31T05:33:52Z</time>
            </trkpt>
            <trkpt lon="101.054758" lat="14.445951">
                <ele>37.148071</ele>
                <time>2009-05-31T05:34:03Z</time>
            </trkpt>
            <trkpt lon="101.054796" lat="14.445951">
                <ele>42.435425</ele>
                <time>2009-05-31T05:34:10Z</time>
            </trkpt>
        </trkseg>
    </trk>
</gpx>